<?xml version="1.0" encoding="UTF-8" standalone="no" ?>
<gpx xmlns="http://www.topografix.com/GPX/1/1" xmlns:xsi="http://www.w3.org/2001/XMLSchema-instance" xsi:schemaLocation="http://www.topografix.com/GPX/1/1 http://www.topografix.com/GPX/1/1/gpx.xsd" version="1.1" creator="VisuGPX - https://www.visugpx.com">
  <metadata>
    <name>Parc de jouvence 12km</name>
  </metadata>
  <trk>
    <name><![CDATA[2017-03-28-01]]></name>
    <trkseg>
      <trkpt lat="47.41444" lon="4.98209">
        <ele>257.9</ele>
        <time>2017-03-28T12:11:29Z</time>
      </trkpt>
      <trkpt lat="47.41469" lon="4.98225">
        <ele>267.4</ele>
        <time>2017-03-28T12:11:41Z</time>
      </trkpt>
      <trkpt lat="47.41479" lon="4.9823">
        <ele>290.5</ele>
        <time>2017-03-28T12:11:45Z</time>
      </trkpt>
      <trkpt lat="47.41487" lon="4.98223">
        <ele>307.6</ele>
        <time>2017-03-28T12:12:06Z</time>
      </trkpt>
      <trkpt lat="47.4148" lon="4.98214">
        <ele>307.5</ele>
        <time>2017-03-28T12:12:25Z</time>
      </trkpt>
      <trkpt lat="47.41473" lon="4.98204">
        <ele>307.3</ele>
        <time>2017-03-28T12:12:36Z</time>
      </trkpt>
      <trkpt lat="47.4147" lon="4.98192">
        <ele>306.7</ele>
        <time>2017-03-28T12:12:53Z</time>
      </trkpt>
      <trkpt lat="47.41472" lon="4.98178">
        <ele>306.4</ele>
        <time>2017-03-28T12:13:05Z</time>
      </trkpt>
      <trkpt lat="47.41478" lon="4.98166">
        <ele>307</ele>
        <time>2017-03-28T12:13:15Z</time>
      </trkpt>
      <trkpt lat="47.4148" lon="4.98153">
        <ele>307.3</ele>
        <time>2017-03-28T12:13:23Z</time>
      </trkpt>
      <trkpt lat="47.41486" lon="4.98142">
        <ele>306.7</ele>
        <time>2017-03-28T12:13:36Z</time>
      </trkpt>
      <trkpt lat="47.41495" lon="4.9814">
        <ele>306.2</ele>
        <time>2017-03-28T12:13:44Z</time>
      </trkpt>
      <trkpt lat="47.41502" lon="4.9813">
        <ele>305.9</ele>
        <time>2017-03-28T12:13:51Z</time>
      </trkpt>
      <trkpt lat="47.4151" lon="4.98121">
        <ele>306.1</ele>
        <time>2017-03-28T12:14:00Z</time>
      </trkpt>
      <trkpt lat="47.41518" lon="4.98111">
        <ele>306</ele>
        <time>2017-03-28T12:14:09Z</time>
      </trkpt>
      <trkpt lat="47.41525" lon="4.98102">
        <ele>306.5</ele>
        <time>2017-03-28T12:14:20Z</time>
      </trkpt>
      <trkpt lat="47.41534" lon="4.98096">
        <ele>307.1</ele>
        <time>2017-03-28T12:14:30Z</time>
      </trkpt>
      <trkpt lat="47.41542" lon="4.9809">
        <ele>307.4</ele>
        <time>2017-03-28T12:14:40Z</time>
      </trkpt>
      <trkpt lat="47.41549" lon="4.98082">
        <ele>307.4</ele>
        <time>2017-03-28T12:14:51Z</time>
      </trkpt>
      <trkpt lat="47.41559" lon="4.98076">
        <ele>307.7</ele>
        <time>2017-03-28T12:14:59Z</time>
      </trkpt>
      <trkpt lat="47.41567" lon="4.9807">
        <ele>307.8</ele>
        <time>2017-03-28T12:15:06Z</time>
      </trkpt>
      <trkpt lat="47.41576" lon="4.98061">
        <ele>308</ele>
        <time>2017-03-28T12:15:14Z</time>
      </trkpt>
      <trkpt lat="47.41583" lon="4.98053">
        <ele>308.3</ele>
        <time>2017-03-28T12:15:22Z</time>
      </trkpt>
      <trkpt lat="47.4159" lon="4.98044">
        <ele>308.5</ele>
        <time>2017-03-28T12:15:30Z</time>
      </trkpt>
      <trkpt lat="47.41597" lon="4.98034">
        <ele>308.9</ele>
        <time>2017-03-28T12:15:38Z</time>
      </trkpt>
      <trkpt lat="47.41602" lon="4.98023">
        <ele>309.3</ele>
        <time>2017-03-28T12:15:47Z</time>
      </trkpt>
      <trkpt lat="47.41608" lon="4.9801">
        <ele>309.7</ele>
        <time>2017-03-28T12:15:56Z</time>
      </trkpt>
      <trkpt lat="47.41613" lon="4.97998">
        <ele>310.3</ele>
        <time>2017-03-28T12:16:06Z</time>
      </trkpt>
      <trkpt lat="47.41618" lon="4.97986">
        <ele>311.1</ele>
        <time>2017-03-28T12:16:27Z</time>
      </trkpt>
      <trkpt lat="47.41623" lon="4.97974">
        <ele>311.5</ele>
        <time>2017-03-28T12:16:35Z</time>
      </trkpt>
      <trkpt lat="47.41629" lon="4.97963">
        <ele>311.9</ele>
        <time>2017-03-28T12:16:43Z</time>
      </trkpt>
      <trkpt lat="47.41634" lon="4.9795">
        <ele>312.3</ele>
        <time>2017-03-28T12:16:53Z</time>
      </trkpt>
      <trkpt lat="47.4164" lon="4.9794">
        <ele>312.7</ele>
        <time>2017-03-28T12:17:01Z</time>
      </trkpt>
      <trkpt lat="47.41646" lon="4.97929">
        <ele>313</ele>
        <time>2017-03-28T12:17:11Z</time>
      </trkpt>
      <trkpt lat="47.4165" lon="4.97918">
        <ele>312.6</ele>
        <time>2017-03-28T12:17:19Z</time>
      </trkpt>
      <trkpt lat="47.41654" lon="4.97904">
        <ele>312.7</ele>
        <time>2017-03-28T12:17:28Z</time>
      </trkpt>
      <trkpt lat="47.41659" lon="4.97892">
        <ele>312.7</ele>
        <time>2017-03-28T12:17:36Z</time>
      </trkpt>
      <trkpt lat="47.41664" lon="4.97881">
        <ele>313.2</ele>
        <time>2017-03-28T12:17:45Z</time>
      </trkpt>
      <trkpt lat="47.41669" lon="4.97869">
        <ele>313.8</ele>
        <time>2017-03-28T12:17:54Z</time>
      </trkpt>
      <trkpt lat="47.4167" lon="4.97856">
        <ele>314.8</ele>
        <time>2017-03-28T12:18:03Z</time>
      </trkpt>
      <trkpt lat="47.41674" lon="4.97843">
        <ele>316</ele>
        <time>2017-03-28T12:18:12Z</time>
      </trkpt>
      <trkpt lat="47.41679" lon="4.97832">
        <ele>317.6</ele>
        <time>2017-03-28T12:18:22Z</time>
      </trkpt>
      <trkpt lat="47.41683" lon="4.9782">
        <ele>318.5</ele>
        <time>2017-03-28T12:18:32Z</time>
      </trkpt>
      <trkpt lat="47.41687" lon="4.97808">
        <ele>319.4</ele>
        <time>2017-03-28T12:18:46Z</time>
      </trkpt>
      <trkpt lat="47.41693" lon="4.97797">
        <ele>319.6</ele>
        <time>2017-03-28T12:19:02Z</time>
      </trkpt>
      <trkpt lat="47.41697" lon="4.97784">
        <ele>319.5</ele>
        <time>2017-03-28T12:19:10Z</time>
      </trkpt>
      <trkpt lat="47.41705" lon="4.97775">
        <ele>319.6</ele>
        <time>2017-03-28T12:19:17Z</time>
      </trkpt>
      <trkpt lat="47.41713" lon="4.97767">
        <ele>319.5</ele>
        <time>2017-03-28T12:19:37Z</time>
      </trkpt>
      <trkpt lat="47.41719" lon="4.97757">
        <ele>318.2</ele>
        <time>2017-03-28T12:20:08Z</time>
      </trkpt>
      <trkpt lat="47.41727" lon="4.9775">
        <ele>317.1</ele>
        <time>2017-03-28T12:20:51Z</time>
      </trkpt>
      <trkpt lat="47.41735" lon="4.97746">
        <ele>316.6</ele>
        <time>2017-03-28T12:21:31Z</time>
      </trkpt>
      <trkpt lat="47.4174" lon="4.97734">
        <ele>312.1</ele>
        <time>2017-03-28T12:22:23Z</time>
      </trkpt>
      <trkpt lat="47.41748" lon="4.97727">
        <ele>310</ele>
        <time>2017-03-28T12:22:35Z</time>
      </trkpt>
      <trkpt lat="47.41754" lon="4.97716">
        <ele>309.1</ele>
        <time>2017-03-28T12:22:49Z</time>
      </trkpt>
      <trkpt lat="47.41761" lon="4.97709">
        <ele>309.5</ele>
        <time>2017-03-28T12:23:10Z</time>
      </trkpt>
      <trkpt lat="47.41765" lon="4.97696">
        <ele>309.4</ele>
        <time>2017-03-28T12:23:27Z</time>
      </trkpt>
      <trkpt lat="47.41772" lon="4.97687">
        <ele>310.7</ele>
        <time>2017-03-28T12:24:01Z</time>
      </trkpt>
      <trkpt lat="47.41777" lon="4.97675">
        <ele>309.8</ele>
        <time>2017-03-28T12:24:25Z</time>
      </trkpt>
      <trkpt lat="47.41781" lon="4.97661">
        <ele>310.2</ele>
        <time>2017-03-28T12:24:47Z</time>
      </trkpt>
      <trkpt lat="47.41781" lon="4.97648">
        <ele>311.4</ele>
        <time>2017-03-28T12:24:59Z</time>
      </trkpt>
      <trkpt lat="47.41783" lon="4.97633">
        <ele>312.4</ele>
        <time>2017-03-28T12:25:10Z</time>
      </trkpt>
      <trkpt lat="47.41788" lon="4.97622">
        <ele>312.4</ele>
        <time>2017-03-28T12:25:24Z</time>
      </trkpt>
      <trkpt lat="47.41793" lon="4.9761">
        <ele>313.2</ele>
        <time>2017-03-28T12:25:34Z</time>
      </trkpt>
      <trkpt lat="47.41797" lon="4.97597">
        <ele>314.1</ele>
        <time>2017-03-28T12:25:46Z</time>
      </trkpt>
      <trkpt lat="47.41802" lon="4.97585">
        <ele>313.2</ele>
        <time>2017-03-28T12:25:57Z</time>
      </trkpt>
      <trkpt lat="47.41807" lon="4.97572">
        <ele>313.2</ele>
        <time>2017-03-28T12:26:14Z</time>
      </trkpt>
      <trkpt lat="47.41814" lon="4.97564">
        <ele>313.1</ele>
        <time>2017-03-28T12:26:26Z</time>
      </trkpt>
      <trkpt lat="47.41819" lon="4.97552">
        <ele>312.4</ele>
        <time>2017-03-28T12:26:35Z</time>
      </trkpt>
      <trkpt lat="47.41823" lon="4.97539">
        <ele>312.5</ele>
        <time>2017-03-28T12:26:49Z</time>
      </trkpt>
      <trkpt lat="47.4183" lon="4.9753">
        <ele>313</ele>
        <time>2017-03-28T12:27:01Z</time>
      </trkpt>
      <trkpt lat="47.41833" lon="4.97517">
        <ele>312.6</ele>
        <time>2017-03-28T12:27:14Z</time>
      </trkpt>
      <trkpt lat="47.41838" lon="4.97505">
        <ele>313.4</ele>
        <time>2017-03-28T12:27:24Z</time>
      </trkpt>
      <trkpt lat="47.41844" lon="4.97493">
        <ele>313.5</ele>
        <time>2017-03-28T12:27:34Z</time>
      </trkpt>
      <trkpt lat="47.4185" lon="4.97483">
        <ele>313.7</ele>
        <time>2017-03-28T12:28:06Z</time>
      </trkpt>
      <trkpt lat="47.41859" lon="4.97478">
        <ele>312</ele>
        <time>2017-03-28T12:28:59Z</time>
      </trkpt>
      <trkpt lat="47.41866" lon="4.9747">
        <ele>312.4</ele>
        <time>2017-03-28T12:29:24Z</time>
      </trkpt>
      <trkpt lat="47.41871" lon="4.97458">
        <ele>310.6</ele>
        <time>2017-03-28T12:29:54Z</time>
      </trkpt>
      <trkpt lat="47.41879" lon="4.9745">
        <ele>309.9</ele>
        <time>2017-03-28T12:30:06Z</time>
      </trkpt>
      <trkpt lat="47.41887" lon="4.97444">
        <ele>309.7</ele>
        <time>2017-03-28T12:30:29Z</time>
      </trkpt>
      <trkpt lat="47.41895" lon="4.97437">
        <ele>310.6</ele>
        <time>2017-03-28T12:30:47Z</time>
      </trkpt>
      <trkpt lat="47.41903" lon="4.97432">
        <ele>310.6</ele>
        <time>2017-03-28T12:31:03Z</time>
      </trkpt>
      <trkpt lat="47.41911" lon="4.97426">
        <ele>311.8</ele>
        <time>2017-03-28T12:31:40Z</time>
      </trkpt>
      <trkpt lat="47.4192" lon="4.97421">
        <ele>312.5</ele>
        <time>2017-03-28T12:32:01Z</time>
      </trkpt>
      <trkpt lat="47.41926" lon="4.97411">
        <ele>313.9</ele>
        <time>2017-03-28T12:32:16Z</time>
      </trkpt>
      <trkpt lat="47.41934" lon="4.97403">
        <ele>315.7</ele>
        <time>2017-03-28T12:32:29Z</time>
      </trkpt>
      <trkpt lat="47.41939" lon="4.97391">
        <ele>317.3</ele>
        <time>2017-03-28T12:32:43Z</time>
      </trkpt>
      <trkpt lat="47.41947" lon="4.97384">
        <ele>317.6</ele>
        <time>2017-03-28T12:33:11Z</time>
      </trkpt>
      <trkpt lat="47.41955" lon="4.97378">
        <ele>316.2</ele>
        <time>2017-03-28T12:33:31Z</time>
      </trkpt>
      <trkpt lat="47.41964" lon="4.97377">
        <ele>316.2</ele>
        <time>2017-03-28T12:33:46Z</time>
      </trkpt>
      <trkpt lat="47.41973" lon="4.97375">
        <ele>314.9</ele>
        <time>2017-03-28T12:34:00Z</time>
      </trkpt>
      <trkpt lat="47.41981" lon="4.97366">
        <ele>314.3</ele>
        <time>2017-03-28T12:34:12Z</time>
      </trkpt>
      <trkpt lat="47.41989" lon="4.97359">
        <ele>314.3</ele>
        <time>2017-03-28T12:34:23Z</time>
      </trkpt>
      <trkpt lat="47.41996" lon="4.97351">
        <ele>315.2</ele>
        <time>2017-03-28T12:34:34Z</time>
      </trkpt>
      <trkpt lat="47.42004" lon="4.97343">
        <ele>315.8</ele>
        <time>2017-03-28T12:34:40Z</time>
      </trkpt>
      <trkpt lat="47.42012" lon="4.97336">
        <ele>316.3</ele>
        <time>2017-03-28T12:34:50Z</time>
      </trkpt>
      <trkpt lat="47.4202" lon="4.97328">
        <ele>316.8</ele>
        <time>2017-03-28T12:35:01Z</time>
      </trkpt>
      <trkpt lat="47.42029" lon="4.97325">
        <ele>316.4</ele>
        <time>2017-03-28T12:35:21Z</time>
      </trkpt>
      <trkpt lat="47.42039" lon="4.97321">
        <ele>315.4</ele>
        <time>2017-03-28T12:35:32Z</time>
      </trkpt>
      <trkpt lat="47.42047" lon="4.97315">
        <ele>314.8</ele>
        <time>2017-03-28T12:35:42Z</time>
      </trkpt>
      <trkpt lat="47.42056" lon="4.9731">
        <ele>314.5</ele>
        <time>2017-03-28T12:35:52Z</time>
      </trkpt>
      <trkpt lat="47.42063" lon="4.97301">
        <ele>314.6</ele>
        <time>2017-03-28T12:36:01Z</time>
      </trkpt>
      <trkpt lat="47.42073" lon="4.97297">
        <ele>314.6</ele>
        <time>2017-03-28T12:36:08Z</time>
      </trkpt>
      <trkpt lat="47.42081" lon="4.97291">
        <ele>314.6</ele>
        <time>2017-03-28T12:36:14Z</time>
      </trkpt>
      <trkpt lat="47.4209" lon="4.97282">
        <ele>314.8</ele>
        <time>2017-03-28T12:36:21Z</time>
      </trkpt>
      <trkpt lat="47.42098" lon="4.97273">
        <ele>315.1</ele>
        <time>2017-03-28T12:36:28Z</time>
      </trkpt>
      <trkpt lat="47.42106" lon="4.97265">
        <ele>315</ele>
        <time>2017-03-28T12:36:35Z</time>
      </trkpt>
      <trkpt lat="47.42113" lon="4.97255">
        <ele>314.9</ele>
        <time>2017-03-28T12:36:43Z</time>
      </trkpt>
      <trkpt lat="47.4212" lon="4.97245">
        <ele>315</ele>
        <time>2017-03-28T12:36:51Z</time>
      </trkpt>
      <trkpt lat="47.42125" lon="4.97233">
        <ele>314.8</ele>
        <time>2017-03-28T12:36:58Z</time>
      </trkpt>
      <trkpt lat="47.42128" lon="4.97219">
        <ele>315.2</ele>
        <time>2017-03-28T12:37:06Z</time>
      </trkpt>
      <trkpt lat="47.42132" lon="4.97206">
        <ele>315.3</ele>
        <time>2017-03-28T12:37:15Z</time>
      </trkpt>
      <trkpt lat="47.42135" lon="4.97194">
        <ele>315.5</ele>
        <time>2017-03-28T12:37:22Z</time>
      </trkpt>
      <trkpt lat="47.42137" lon="4.9718">
        <ele>315.6</ele>
        <time>2017-03-28T12:37:31Z</time>
      </trkpt>
      <trkpt lat="47.42139" lon="4.97166">
        <ele>315.4</ele>
        <time>2017-03-28T12:37:40Z</time>
      </trkpt>
      <trkpt lat="47.4214" lon="4.97152">
        <ele>315.6</ele>
        <time>2017-03-28T12:37:49Z</time>
      </trkpt>
      <trkpt lat="47.42141" lon="4.97137">
        <ele>316</ele>
        <time>2017-03-28T12:37:56Z</time>
      </trkpt>
      <trkpt lat="47.42143" lon="4.97123">
        <ele>316</ele>
        <time>2017-03-28T12:38:03Z</time>
      </trkpt>
      <trkpt lat="47.42146" lon="4.9711">
        <ele>316.2</ele>
        <time>2017-03-28T12:38:10Z</time>
      </trkpt>
      <trkpt lat="47.4215" lon="4.97097">
        <ele>316.2</ele>
        <time>2017-03-28T12:38:19Z</time>
      </trkpt>
      <trkpt lat="47.4215" lon="4.97081">
        <ele>316.2</ele>
        <time>2017-03-28T12:38:27Z</time>
      </trkpt>
      <trkpt lat="47.42151" lon="4.97068">
        <ele>315.9</ele>
        <time>2017-03-28T12:38:34Z</time>
      </trkpt>
      <trkpt lat="47.42153" lon="4.97054">
        <ele>316</ele>
        <time>2017-03-28T12:38:42Z</time>
      </trkpt>
      <trkpt lat="47.42157" lon="4.97041">
        <ele>315.8</ele>
        <time>2017-03-28T12:38:50Z</time>
      </trkpt>
      <trkpt lat="47.4216" lon="4.97028">
        <ele>316</ele>
        <time>2017-03-28T12:38:58Z</time>
      </trkpt>
      <trkpt lat="47.42163" lon="4.97013">
        <ele>316</ele>
        <time>2017-03-28T12:39:06Z</time>
      </trkpt>
      <trkpt lat="47.42165" lon="4.97">
        <ele>316.1</ele>
        <time>2017-03-28T12:39:13Z</time>
      </trkpt>
      <trkpt lat="47.42167" lon="4.96986">
        <ele>316.3</ele>
        <time>2017-03-28T12:39:21Z</time>
      </trkpt>
      <trkpt lat="47.42172" lon="4.96974">
        <ele>316.4</ele>
        <time>2017-03-28T12:39:28Z</time>
      </trkpt>
      <trkpt lat="47.42175" lon="4.96961">
        <ele>316.4</ele>
        <time>2017-03-28T12:39:36Z</time>
      </trkpt>
      <trkpt lat="47.4218" lon="4.96948">
        <ele>316.5</ele>
        <time>2017-03-28T12:39:45Z</time>
      </trkpt>
      <trkpt lat="47.42184" lon="4.96936">
        <ele>316.7</ele>
        <time>2017-03-28T12:39:52Z</time>
      </trkpt>
      <trkpt lat="47.42189" lon="4.96923">
        <ele>316.7</ele>
        <time>2017-03-28T12:40:00Z</time>
      </trkpt>
      <trkpt lat="47.42196" lon="4.96912">
        <ele>316.5</ele>
        <time>2017-03-28T12:40:08Z</time>
      </trkpt>
      <trkpt lat="47.42202" lon="4.96901">
        <ele>316.3</ele>
        <time>2017-03-28T12:40:17Z</time>
      </trkpt>
      <trkpt lat="47.42209" lon="4.96891">
        <ele>316.4</ele>
        <time>2017-03-28T12:40:25Z</time>
      </trkpt>
      <trkpt lat="47.42214" lon="4.9688">
        <ele>316.5</ele>
        <time>2017-03-28T12:40:33Z</time>
      </trkpt>
      <trkpt lat="47.42223" lon="4.96873">
        <ele>316.6</ele>
        <time>2017-03-28T12:40:41Z</time>
      </trkpt>
      <trkpt lat="47.42229" lon="4.96863">
        <ele>316.9</ele>
        <time>2017-03-28T12:40:49Z</time>
      </trkpt>
      <trkpt lat="47.42235" lon="4.96852">
        <ele>317.1</ele>
        <time>2017-03-28T12:40:57Z</time>
      </trkpt>
      <trkpt lat="47.4224" lon="4.96839">
        <ele>316.9</ele>
        <time>2017-03-28T12:41:07Z</time>
      </trkpt>
      <trkpt lat="47.42246" lon="4.96829">
        <ele>317.2</ele>
        <time>2017-03-28T12:41:14Z</time>
      </trkpt>
      <trkpt lat="47.42251" lon="4.96817">
        <ele>317.3</ele>
        <time>2017-03-28T12:41:23Z</time>
      </trkpt>
      <trkpt lat="47.42257" lon="4.96804">
        <ele>317.5</ele>
        <time>2017-03-28T12:41:31Z</time>
      </trkpt>
      <trkpt lat="47.42262" lon="4.96792">
        <ele>317.5</ele>
        <time>2017-03-28T12:41:40Z</time>
      </trkpt>
      <trkpt lat="47.42268" lon="4.96781">
        <ele>317.5</ele>
        <time>2017-03-28T12:41:50Z</time>
      </trkpt>
      <trkpt lat="47.42273" lon="4.96769">
        <ele>317.7</ele>
        <time>2017-03-28T12:41:58Z</time>
      </trkpt>
      <trkpt lat="47.42279" lon="4.96756">
        <ele>317.9</ele>
        <time>2017-03-28T12:42:06Z</time>
      </trkpt>
      <trkpt lat="47.42284" lon="4.96745">
        <ele>317.9</ele>
        <time>2017-03-28T12:42:14Z</time>
      </trkpt>
      <trkpt lat="47.4229" lon="4.96734">
        <ele>317.9</ele>
        <time>2017-03-28T12:42:24Z</time>
      </trkpt>
      <trkpt lat="47.42296" lon="4.96723">
        <ele>317.9</ele>
        <time>2017-03-28T12:42:32Z</time>
      </trkpt>
      <trkpt lat="47.42303" lon="4.96714">
        <ele>317.9</ele>
        <time>2017-03-28T12:42:40Z</time>
      </trkpt>
      <trkpt lat="47.42312" lon="4.96707">
        <ele>318</ele>
        <time>2017-03-28T12:42:49Z</time>
      </trkpt>
      <trkpt lat="47.42319" lon="4.96698">
        <ele>318</ele>
        <time>2017-03-28T12:42:58Z</time>
      </trkpt>
      <trkpt lat="47.42324" lon="4.96687">
        <ele>318.4</ele>
        <time>2017-03-28T12:43:07Z</time>
      </trkpt>
      <trkpt lat="47.42326" lon="4.96674">
        <ele>318.4</ele>
        <time>2017-03-28T12:43:17Z</time>
      </trkpt>
      <trkpt lat="47.42332" lon="4.96663">
        <ele>318.4</ele>
        <time>2017-03-28T12:43:26Z</time>
      </trkpt>
      <trkpt lat="47.42339" lon="4.96653">
        <ele>318.9</ele>
        <time>2017-03-28T12:43:35Z</time>
      </trkpt>
      <trkpt lat="47.42347" lon="4.96644">
        <ele>318.8</ele>
        <time>2017-03-28T12:43:42Z</time>
      </trkpt>
      <trkpt lat="47.42353" lon="4.96633">
        <ele>319.1</ele>
        <time>2017-03-28T12:43:49Z</time>
      </trkpt>
      <trkpt lat="47.42359" lon="4.96623">
        <ele>319.1</ele>
        <time>2017-03-28T12:43:56Z</time>
      </trkpt>
      <trkpt lat="47.42363" lon="4.96611">
        <ele>319.1</ele>
        <time>2017-03-28T12:44:04Z</time>
      </trkpt>
      <trkpt lat="47.4237" lon="4.96603">
        <ele>319.4</ele>
        <time>2017-03-28T12:44:11Z</time>
      </trkpt>
      <trkpt lat="47.42377" lon="4.96593">
        <ele>319.5</ele>
        <time>2017-03-28T12:44:19Z</time>
      </trkpt>
      <trkpt lat="47.42385" lon="4.96584">
        <ele>319.8</ele>
        <time>2017-03-28T12:44:27Z</time>
      </trkpt>
      <trkpt lat="47.42393" lon="4.96575">
        <ele>320</ele>
        <time>2017-03-28T12:44:37Z</time>
      </trkpt>
      <trkpt lat="47.424" lon="4.96566">
        <ele>319.9</ele>
        <time>2017-03-28T12:44:52Z</time>
      </trkpt>
      <trkpt lat="47.42406" lon="4.96555">
        <ele>320.5</ele>
        <time>2017-03-28T12:45:01Z</time>
      </trkpt>
      <trkpt lat="47.42412" lon="4.96544">
        <ele>320.7</ele>
        <time>2017-03-28T12:45:10Z</time>
      </trkpt>
      <trkpt lat="47.42416" lon="4.9653">
        <ele>320.7</ele>
        <time>2017-03-28T12:45:19Z</time>
      </trkpt>
      <trkpt lat="47.42418" lon="4.96516">
        <ele>320.7</ele>
        <time>2017-03-28T12:45:27Z</time>
      </trkpt>
      <trkpt lat="47.42423" lon="4.96503">
        <ele>320.8</ele>
        <time>2017-03-28T12:45:35Z</time>
      </trkpt>
      <trkpt lat="47.42429" lon="4.96493">
        <ele>320.9</ele>
        <time>2017-03-28T12:45:42Z</time>
      </trkpt>
      <trkpt lat="47.42435" lon="4.96482">
        <ele>321</ele>
        <time>2017-03-28T12:45:51Z</time>
      </trkpt>
      <trkpt lat="47.4244" lon="4.96469">
        <ele>321.1</ele>
        <time>2017-03-28T12:45:59Z</time>
      </trkpt>
      <trkpt lat="47.42447" lon="4.96457">
        <ele>321.3</ele>
        <time>2017-03-28T12:46:05Z</time>
      </trkpt>
      <trkpt lat="47.42452" lon="4.96446">
        <ele>321.1</ele>
        <time>2017-03-28T12:46:11Z</time>
      </trkpt>
      <trkpt lat="47.42458" lon="4.96434">
        <ele>320.9</ele>
        <time>2017-03-28T12:46:19Z</time>
      </trkpt>
      <trkpt lat="47.42466" lon="4.96425">
        <ele>320.8</ele>
        <time>2017-03-28T12:46:25Z</time>
      </trkpt>
      <trkpt lat="47.42472" lon="4.96413">
        <ele>320.6</ele>
        <time>2017-03-28T12:46:32Z</time>
      </trkpt>
      <trkpt lat="47.42476" lon="4.964">
        <ele>320.6</ele>
        <time>2017-03-28T12:46:40Z</time>
      </trkpt>
      <trkpt lat="47.42478" lon="4.96385">
        <ele>320.3</ele>
        <time>2017-03-28T12:46:48Z</time>
      </trkpt>
      <trkpt lat="47.42482" lon="4.96373">
        <ele>320.3</ele>
        <time>2017-03-28T12:46:57Z</time>
      </trkpt>
      <trkpt lat="47.42486" lon="4.9636">
        <ele>320.3</ele>
        <time>2017-03-28T12:47:06Z</time>
      </trkpt>
      <trkpt lat="47.42489" lon="4.96346">
        <ele>320.5</ele>
        <time>2017-03-28T12:47:15Z</time>
      </trkpt>
      <trkpt lat="47.42494" lon="4.96334">
        <ele>320.5</ele>
        <time>2017-03-28T12:47:24Z</time>
      </trkpt>
      <trkpt lat="47.42495" lon="4.9632">
        <ele>320.4</ele>
        <time>2017-03-28T12:47:33Z</time>
      </trkpt>
      <trkpt lat="47.42496" lon="4.96307">
        <ele>320.7</ele>
        <time>2017-03-28T12:47:40Z</time>
      </trkpt>
      <trkpt lat="47.42498" lon="4.96291">
        <ele>321</ele>
        <time>2017-03-28T12:47:47Z</time>
      </trkpt>
      <trkpt lat="47.425" lon="4.96278">
        <ele>321</ele>
        <time>2017-03-28T12:47:54Z</time>
      </trkpt>
      <trkpt lat="47.425" lon="4.96265">
        <ele>321.1</ele>
        <time>2017-03-28T12:48:01Z</time>
      </trkpt>
      <trkpt lat="47.42498" lon="4.96251">
        <ele>321.2</ele>
        <time>2017-03-28T12:48:09Z</time>
      </trkpt>
      <trkpt lat="47.42498" lon="4.96236">
        <ele>321.4</ele>
        <time>2017-03-28T12:48:17Z</time>
      </trkpt>
      <trkpt lat="47.42501" lon="4.96223">
        <ele>321.3</ele>
        <time>2017-03-28T12:48:28Z</time>
      </trkpt>
      <trkpt lat="47.42504" lon="4.96209">
        <ele>321.6</ele>
        <time>2017-03-28T12:52:31Z</time>
      </trkpt>
      <trkpt lat="47.42509" lon="4.96198">
        <ele>321.7</ele>
        <time>2017-03-28T12:52:47Z</time>
      </trkpt>
      <trkpt lat="47.42512" lon="4.96185">
        <ele>321.8</ele>
        <time>2017-03-28T12:52:57Z</time>
      </trkpt>
      <trkpt lat="47.42515" lon="4.96172">
        <ele>321.9</ele>
        <time>2017-03-28T12:53:05Z</time>
      </trkpt>
      <trkpt lat="47.42518" lon="4.96159">
        <ele>322.2</ele>
        <time>2017-03-28T12:53:15Z</time>
      </trkpt>
      <trkpt lat="47.42521" lon="4.96146">
        <ele>322.4</ele>
        <time>2017-03-28T12:53:26Z</time>
      </trkpt>
      <trkpt lat="47.42525" lon="4.96132">
        <ele>322.6</ele>
        <time>2017-03-28T12:53:35Z</time>
      </trkpt>
      <trkpt lat="47.42527" lon="4.96117">
        <ele>323.1</ele>
        <time>2017-03-28T12:53:44Z</time>
      </trkpt>
      <trkpt lat="47.42534" lon="4.96108">
        <ele>323.3</ele>
        <time>2017-03-28T12:53:53Z</time>
      </trkpt>
      <trkpt lat="47.42539" lon="4.96095">
        <ele>323.6</ele>
        <time>2017-03-28T12:54:02Z</time>
      </trkpt>
      <trkpt lat="47.42544" lon="4.96085">
        <ele>324.2</ele>
        <time>2017-03-28T12:54:11Z</time>
      </trkpt>
      <trkpt lat="47.42549" lon="4.96073">
        <ele>324.6</ele>
        <time>2017-03-28T12:54:18Z</time>
      </trkpt>
      <trkpt lat="47.42554" lon="4.96062">
        <ele>324.9</ele>
        <time>2017-03-28T12:54:26Z</time>
      </trkpt>
      <trkpt lat="47.42561" lon="4.96052">
        <ele>324.9</ele>
        <time>2017-03-28T12:54:35Z</time>
      </trkpt>
      <trkpt lat="47.42567" lon="4.96042">
        <ele>325.2</ele>
        <time>2017-03-28T12:54:44Z</time>
      </trkpt>
      <trkpt lat="47.42574" lon="4.96033">
        <ele>325.1</ele>
        <time>2017-03-28T12:54:52Z</time>
      </trkpt>
      <trkpt lat="47.42581" lon="4.96024">
        <ele>325.4</ele>
        <time>2017-03-28T12:55:02Z</time>
      </trkpt>
      <trkpt lat="47.42589" lon="4.96017">
        <ele>325.8</ele>
        <time>2017-03-28T12:55:10Z</time>
      </trkpt>
      <trkpt lat="47.42597" lon="4.96008">
        <ele>326.4</ele>
        <time>2017-03-28T12:55:20Z</time>
      </trkpt>
      <trkpt lat="47.42605" lon="4.96001">
        <ele>327</ele>
        <time>2017-03-28T12:55:28Z</time>
      </trkpt>
      <trkpt lat="47.42613" lon="4.95991">
        <ele>327.3</ele>
        <time>2017-03-28T12:55:37Z</time>
      </trkpt>
      <trkpt lat="47.42621" lon="4.95984">
        <ele>327.5</ele>
        <time>2017-03-28T12:55:46Z</time>
      </trkpt>
      <trkpt lat="47.42628" lon="4.95974">
        <ele>327.7</ele>
        <time>2017-03-28T12:55:53Z</time>
      </trkpt>
      <trkpt lat="47.42635" lon="4.95964">
        <ele>327.9</ele>
        <time>2017-03-28T12:56:00Z</time>
      </trkpt>
      <trkpt lat="47.42642" lon="4.95955">
        <ele>328.1</ele>
        <time>2017-03-28T12:56:09Z</time>
      </trkpt>
      <trkpt lat="47.42651" lon="4.95947">
        <ele>328.9</ele>
        <time>2017-03-28T12:56:19Z</time>
      </trkpt>
      <trkpt lat="47.42658" lon="4.95937">
        <ele>329</ele>
        <time>2017-03-28T12:56:26Z</time>
      </trkpt>
      <trkpt lat="47.42666" lon="4.9593">
        <ele>329.3</ele>
        <time>2017-03-28T12:56:35Z</time>
      </trkpt>
      <trkpt lat="47.42673" lon="4.95919">
        <ele>329.9</ele>
        <time>2017-03-28T12:56:44Z</time>
      </trkpt>
      <trkpt lat="47.4268" lon="4.95911">
        <ele>330.1</ele>
        <time>2017-03-28T12:56:52Z</time>
      </trkpt>
      <trkpt lat="47.42689" lon="4.95906">
        <ele>330.3</ele>
        <time>2017-03-28T12:57:00Z</time>
      </trkpt>
      <trkpt lat="47.42699" lon="4.95902">
        <ele>330.7</ele>
        <time>2017-03-28T12:57:09Z</time>
      </trkpt>
      <trkpt lat="47.42707" lon="4.95897">
        <ele>330.7</ele>
        <time>2017-03-28T12:57:18Z</time>
      </trkpt>
      <trkpt lat="47.42716" lon="4.95894">
        <ele>330.8</ele>
        <time>2017-03-28T12:57:26Z</time>
      </trkpt>
      <trkpt lat="47.42725" lon="4.95888">
        <ele>330.1</ele>
        <time>2017-03-28T12:57:35Z</time>
      </trkpt>
      <trkpt lat="47.42733" lon="4.95881">
        <ele>329.8</ele>
        <time>2017-03-28T12:57:43Z</time>
      </trkpt>
      <trkpt lat="47.42742" lon="4.95877">
        <ele>329.3</ele>
        <time>2017-03-28T12:57:50Z</time>
      </trkpt>
      <trkpt lat="47.42751" lon="4.95875">
        <ele>328.6</ele>
        <time>2017-03-28T12:57:58Z</time>
      </trkpt>
      <trkpt lat="47.4276" lon="4.95874">
        <ele>327.8</ele>
        <time>2017-03-28T12:58:07Z</time>
      </trkpt>
      <trkpt lat="47.4277" lon="4.95875">
        <ele>326.9</ele>
        <time>2017-03-28T12:58:21Z</time>
      </trkpt>
      <trkpt lat="47.42779" lon="4.95875">
        <ele>326.2</ele>
        <time>2017-03-28T12:58:31Z</time>
      </trkpt>
      <trkpt lat="47.42788" lon="4.95871">
        <ele>325.6</ele>
        <time>2017-03-28T12:58:39Z</time>
      </trkpt>
      <trkpt lat="47.42798" lon="4.9587">
        <ele>325.5</ele>
        <time>2017-03-28T12:58:47Z</time>
      </trkpt>
      <trkpt lat="47.42807" lon="4.95868">
        <ele>325.3</ele>
        <time>2017-03-28T12:58:53Z</time>
      </trkpt>
      <trkpt lat="47.42817" lon="4.95864">
        <ele>325</ele>
        <time>2017-03-28T12:58:59Z</time>
      </trkpt>
      <trkpt lat="47.42827" lon="4.95861">
        <ele>325</ele>
        <time>2017-03-28T12:59:06Z</time>
      </trkpt>
      <trkpt lat="47.42836" lon="4.95858">
        <ele>325</ele>
        <time>2017-03-28T12:59:12Z</time>
      </trkpt>
      <trkpt lat="47.42846" lon="4.95858">
        <ele>325.2</ele>
        <time>2017-03-28T12:59:24Z</time>
      </trkpt>
      <trkpt lat="47.42855" lon="4.95856">
        <ele>325.6</ele>
        <time>2017-03-28T12:59:31Z</time>
      </trkpt>
      <trkpt lat="47.42865" lon="4.95855">
        <ele>326</ele>
        <time>2017-03-28T12:59:39Z</time>
      </trkpt>
      <trkpt lat="47.42874" lon="4.95857">
        <ele>326.7</ele>
        <time>2017-03-28T12:59:49Z</time>
      </trkpt>
      <trkpt lat="47.42883" lon="4.95856">
        <ele>327.4</ele>
        <time>2017-03-28T12:59:58Z</time>
      </trkpt>
      <trkpt lat="47.42894" lon="4.95856">
        <ele>328</ele>
        <time>2017-03-28T13:00:05Z</time>
      </trkpt>
      <trkpt lat="47.42903" lon="4.95854">
        <ele>328.3</ele>
        <time>2017-03-28T13:00:11Z</time>
      </trkpt>
      <trkpt lat="47.42912" lon="4.95856">
        <ele>328.6</ele>
        <time>2017-03-28T13:00:18Z</time>
      </trkpt>
      <trkpt lat="47.4292" lon="4.95863">
        <ele>328.7</ele>
        <time>2017-03-28T13:00:25Z</time>
      </trkpt>
      <trkpt lat="47.42928" lon="4.95867">
        <ele>328.8</ele>
        <time>2017-03-28T13:00:34Z</time>
      </trkpt>
      <trkpt lat="47.42937" lon="4.95869">
        <ele>328.8</ele>
        <time>2017-03-28T13:00:42Z</time>
      </trkpt>
      <trkpt lat="47.42946" lon="4.95872">
        <ele>328.3</ele>
        <time>2017-03-28T13:00:49Z</time>
      </trkpt>
      <trkpt lat="47.42955" lon="4.95881">
        <ele>328.1</ele>
        <time>2017-03-28T13:00:57Z</time>
      </trkpt>
      <trkpt lat="47.42964" lon="4.95885">
        <ele>328.5</ele>
        <time>2017-03-28T13:01:10Z</time>
      </trkpt>
      <trkpt lat="47.42972" lon="4.95892">
        <ele>328.7</ele>
        <time>2017-03-28T13:01:17Z</time>
      </trkpt>
      <trkpt lat="47.42982" lon="4.95895">
        <ele>329.1</ele>
        <time>2017-03-28T13:01:24Z</time>
      </trkpt>
      <trkpt lat="47.42991" lon="4.959">
        <ele>329.7</ele>
        <time>2017-03-28T13:01:33Z</time>
      </trkpt>
      <trkpt lat="47.43" lon="4.95908">
        <ele>330.3</ele>
        <time>2017-03-28T13:01:42Z</time>
      </trkpt>
      <trkpt lat="47.43009" lon="4.95914">
        <ele>330.7</ele>
        <time>2017-03-28T13:01:51Z</time>
      </trkpt>
      <trkpt lat="47.43017" lon="4.95923">
        <ele>330.9</ele>
        <time>2017-03-28T13:01:58Z</time>
      </trkpt>
      <trkpt lat="47.43025" lon="4.95931">
        <ele>331.3</ele>
        <time>2017-03-28T13:02:06Z</time>
      </trkpt>
      <trkpt lat="47.43035" lon="4.95932">
        <ele>332</ele>
        <time>2017-03-28T13:02:14Z</time>
      </trkpt>
      <trkpt lat="47.43044" lon="4.95935">
        <ele>332.8</ele>
        <time>2017-03-28T13:02:22Z</time>
      </trkpt>
      <trkpt lat="47.43054" lon="4.95934">
        <ele>333.3</ele>
        <time>2017-03-28T13:02:31Z</time>
      </trkpt>
      <trkpt lat="47.43063" lon="4.95936">
        <ele>333.9</ele>
        <time>2017-03-28T13:02:42Z</time>
      </trkpt>
      <trkpt lat="47.43072" lon="4.95936">
        <ele>334.4</ele>
        <time>2017-03-28T13:02:53Z</time>
      </trkpt>
      <trkpt lat="47.43082" lon="4.95936">
        <ele>334.5</ele>
        <time>2017-03-28T13:03:01Z</time>
      </trkpt>
      <trkpt lat="47.43091" lon="4.95934">
        <ele>334.8</ele>
        <time>2017-03-28T13:04:07Z</time>
      </trkpt>
      <trkpt lat="47.431" lon="4.95929">
        <ele>334.7</ele>
        <time>2017-03-28T13:04:21Z</time>
      </trkpt>
      <trkpt lat="47.43108" lon="4.95924">
        <ele>335</ele>
        <time>2017-03-28T13:04:31Z</time>
      </trkpt>
      <trkpt lat="47.43117" lon="4.95919">
        <ele>335.6</ele>
        <time>2017-03-28T13:04:39Z</time>
      </trkpt>
      <trkpt lat="47.43126" lon="4.95913">
        <ele>335.7</ele>
        <time>2017-03-28T13:04:47Z</time>
      </trkpt>
      <trkpt lat="47.43134" lon="4.95906">
        <ele>334.9</ele>
        <time>2017-03-28T13:04:57Z</time>
      </trkpt>
      <trkpt lat="47.43142" lon="4.95897">
        <ele>335.2</ele>
        <time>2017-03-28T13:05:08Z</time>
      </trkpt>
      <trkpt lat="47.43149" lon="4.95886">
        <ele>334.6</ele>
        <time>2017-03-28T13:05:16Z</time>
      </trkpt>
      <trkpt lat="47.43155" lon="4.95873">
        <ele>334.3</ele>
        <time>2017-03-28T13:05:23Z</time>
      </trkpt>
      <trkpt lat="47.43159" lon="4.95862">
        <ele>334.1</ele>
        <time>2017-03-28T13:05:29Z</time>
      </trkpt>
      <trkpt lat="47.43166" lon="4.95852">
        <ele>334.1</ele>
        <time>2017-03-28T13:05:35Z</time>
      </trkpt>
      <trkpt lat="47.4317" lon="4.9584">
        <ele>333.8</ele>
        <time>2017-03-28T13:05:42Z</time>
      </trkpt>
      <trkpt lat="47.43174" lon="4.95827">
        <ele>333.9</ele>
        <time>2017-03-28T13:05:50Z</time>
      </trkpt>
      <trkpt lat="47.43178" lon="4.95814">
        <ele>333.7</ele>
        <time>2017-03-28T13:05:58Z</time>
      </trkpt>
      <trkpt lat="47.43181" lon="4.958">
        <ele>333.8</ele>
        <time>2017-03-28T13:06:07Z</time>
      </trkpt>
      <trkpt lat="47.43182" lon="4.95785">
        <ele>333.9</ele>
        <time>2017-03-28T13:06:15Z</time>
      </trkpt>
      <trkpt lat="47.43184" lon="4.95772">
        <ele>334</ele>
        <time>2017-03-28T13:06:23Z</time>
      </trkpt>
      <trkpt lat="47.43184" lon="4.95759">
        <ele>334.3</ele>
        <time>2017-03-28T13:06:30Z</time>
      </trkpt>
      <trkpt lat="47.43187" lon="4.95745">
        <ele>334.8</ele>
        <time>2017-03-28T13:06:37Z</time>
      </trkpt>
      <trkpt lat="47.43188" lon="4.95731">
        <ele>335.6</ele>
        <time>2017-03-28T13:06:46Z</time>
      </trkpt>
      <trkpt lat="47.43191" lon="4.95716">
        <ele>336</ele>
        <time>2017-03-28T13:06:55Z</time>
      </trkpt>
      <trkpt lat="47.43194" lon="4.95702">
        <ele>336.4</ele>
        <time>2017-03-28T13:07:03Z</time>
      </trkpt>
      <trkpt lat="47.43197" lon="4.95689">
        <ele>336.7</ele>
        <time>2017-03-28T13:07:12Z</time>
      </trkpt>
      <trkpt lat="47.43199" lon="4.95675">
        <ele>336.6</ele>
        <time>2017-03-28T13:07:20Z</time>
      </trkpt>
      <trkpt lat="47.43203" lon="4.95662">
        <ele>336.6</ele>
        <time>2017-03-28T13:07:28Z</time>
      </trkpt>
      <trkpt lat="47.43208" lon="4.9565">
        <ele>336.7</ele>
        <time>2017-03-28T13:07:36Z</time>
      </trkpt>
      <trkpt lat="47.43212" lon="4.95637">
        <ele>336.8</ele>
        <time>2017-03-28T13:07:44Z</time>
      </trkpt>
      <trkpt lat="47.43214" lon="4.95624">
        <ele>336.8</ele>
        <time>2017-03-28T13:07:52Z</time>
      </trkpt>
      <trkpt lat="47.43219" lon="4.95611">
        <ele>336.6</ele>
        <time>2017-03-28T13:08:00Z</time>
      </trkpt>
      <trkpt lat="47.43222" lon="4.95599">
        <ele>336.6</ele>
        <time>2017-03-28T13:08:08Z</time>
      </trkpt>
      <trkpt lat="47.43224" lon="4.95585">
        <ele>336.3</ele>
        <time>2017-03-28T13:08:16Z</time>
      </trkpt>
      <trkpt lat="47.43229" lon="4.95572">
        <ele>336.3</ele>
        <time>2017-03-28T13:08:24Z</time>
      </trkpt>
      <trkpt lat="47.43231" lon="4.95559">
        <ele>336.6</ele>
        <time>2017-03-28T13:08:31Z</time>
      </trkpt>
      <trkpt lat="47.43235" lon="4.95546">
        <ele>336.7</ele>
        <time>2017-03-28T13:08:39Z</time>
      </trkpt>
      <trkpt lat="47.43238" lon="4.95533">
        <ele>337</ele>
        <time>2017-03-28T13:08:47Z</time>
      </trkpt>
      <trkpt lat="47.43239" lon="4.95519">
        <ele>337.1</ele>
        <time>2017-03-28T13:08:56Z</time>
      </trkpt>
      <trkpt lat="47.43237" lon="4.95505">
        <ele>336.9</ele>
        <time>2017-03-28T13:09:05Z</time>
      </trkpt>
      <trkpt lat="47.43239" lon="4.9549">
        <ele>336.9</ele>
        <time>2017-03-28T13:09:13Z</time>
      </trkpt>
      <trkpt lat="47.43241" lon="4.95476">
        <ele>336.8</ele>
        <time>2017-03-28T13:09:21Z</time>
      </trkpt>
      <trkpt lat="47.43241" lon="4.95462">
        <ele>337</ele>
        <time>2017-03-28T13:09:29Z</time>
      </trkpt>
      <trkpt lat="47.4324" lon="4.95448">
        <ele>336.7</ele>
        <time>2017-03-28T13:09:37Z</time>
      </trkpt>
      <trkpt lat="47.4324" lon="4.95435">
        <ele>336.2</ele>
        <time>2017-03-28T13:09:45Z</time>
      </trkpt>
      <trkpt lat="47.4324" lon="4.9542">
        <ele>335.7</ele>
        <time>2017-03-28T13:09:53Z</time>
      </trkpt>
      <trkpt lat="47.43241" lon="4.95406">
        <ele>335.5</ele>
        <time>2017-03-28T13:10:01Z</time>
      </trkpt>
      <trkpt lat="47.43242" lon="4.95392">
        <ele>335.4</ele>
        <time>2017-03-28T13:10:08Z</time>
      </trkpt>
      <trkpt lat="47.43245" lon="4.95379">
        <ele>335.7</ele>
        <time>2017-03-28T13:10:15Z</time>
      </trkpt>
      <trkpt lat="47.43246" lon="4.95365">
        <ele>336.4</ele>
        <time>2017-03-28T13:10:23Z</time>
      </trkpt>
      <trkpt lat="47.43247" lon="4.95352">
        <ele>336.9</ele>
        <time>2017-03-28T13:10:31Z</time>
      </trkpt>
      <trkpt lat="47.43244" lon="4.95338">
        <ele>337.6</ele>
        <time>2017-03-28T13:10:40Z</time>
      </trkpt>
      <trkpt lat="47.43242" lon="4.95324">
        <ele>338.4</ele>
        <time>2017-03-28T13:10:50Z</time>
      </trkpt>
      <trkpt lat="47.43243" lon="4.9531">
        <ele>338.8</ele>
        <time>2017-03-28T13:10:59Z</time>
      </trkpt>
      <trkpt lat="47.4324" lon="4.95297">
        <ele>339.1</ele>
        <time>2017-03-28T13:11:07Z</time>
      </trkpt>
      <trkpt lat="47.4324" lon="4.95283">
        <ele>339</ele>
        <time>2017-03-28T13:11:15Z</time>
      </trkpt>
      <trkpt lat="47.43239" lon="4.9527">
        <ele>338.4</ele>
        <time>2017-03-28T13:11:23Z</time>
      </trkpt>
      <trkpt lat="47.43235" lon="4.95257">
        <ele>337.6</ele>
        <time>2017-03-28T13:11:31Z</time>
      </trkpt>
      <trkpt lat="47.43231" lon="4.95244">
        <ele>337.5</ele>
        <time>2017-03-28T13:11:38Z</time>
      </trkpt>
      <trkpt lat="47.43225" lon="4.95235">
        <ele>337.5</ele>
        <time>2017-03-28T13:11:45Z</time>
      </trkpt>
      <trkpt lat="47.43218" lon="4.95224">
        <ele>337.1</ele>
        <time>2017-03-28T13:11:52Z</time>
      </trkpt>
      <trkpt lat="47.4321" lon="4.95218">
        <ele>337.2</ele>
        <time>2017-03-28T13:11:59Z</time>
      </trkpt>
      <trkpt lat="47.43202" lon="4.95211">
        <ele>337.2</ele>
        <time>2017-03-28T13:12:07Z</time>
      </trkpt>
      <trkpt lat="47.43193" lon="4.95205">
        <ele>338.2</ele>
        <time>2017-03-28T13:12:16Z</time>
      </trkpt>
      <trkpt lat="47.43186" lon="4.95196">
        <ele>338.4</ele>
        <time>2017-03-28T13:12:25Z</time>
      </trkpt>
      <trkpt lat="47.43181" lon="4.95185">
        <ele>338.6</ele>
        <time>2017-03-28T13:12:34Z</time>
      </trkpt>
      <trkpt lat="47.43173" lon="4.95176">
        <ele>339</ele>
        <time>2017-03-28T13:12:43Z</time>
      </trkpt>
      <trkpt lat="47.4317" lon="4.95163">
        <ele>338.9</ele>
        <time>2017-03-28T13:15:05Z</time>
      </trkpt>
      <trkpt lat="47.43166" lon="4.95151">
        <ele>338.7</ele>
        <time>2017-03-28T13:15:13Z</time>
      </trkpt>
      <trkpt lat="47.43161" lon="4.95139">
        <ele>338.3</ele>
        <time>2017-03-28T13:15:21Z</time>
      </trkpt>
      <trkpt lat="47.43156" lon="4.95128">
        <ele>338</ele>
        <time>2017-03-28T13:15:29Z</time>
      </trkpt>
      <trkpt lat="47.43151" lon="4.95116">
        <ele>337.4</ele>
        <time>2017-03-28T13:15:37Z</time>
      </trkpt>
      <trkpt lat="47.43148" lon="4.95102">
        <ele>336.9</ele>
        <time>2017-03-28T13:15:46Z</time>
      </trkpt>
      <trkpt lat="47.43142" lon="4.95091">
        <ele>336.6</ele>
        <time>2017-03-28T13:15:55Z</time>
      </trkpt>
      <trkpt lat="47.43135" lon="4.9508">
        <ele>336.3</ele>
        <time>2017-03-28T13:16:03Z</time>
      </trkpt>
      <trkpt lat="47.43129" lon="4.95069">
        <ele>336.2</ele>
        <time>2017-03-28T13:16:11Z</time>
      </trkpt>
      <trkpt lat="47.43121" lon="4.9506">
        <ele>336.9</ele>
        <time>2017-03-28T13:16:19Z</time>
      </trkpt>
      <trkpt lat="47.43113" lon="4.95051">
        <ele>337.3</ele>
        <time>2017-03-28T13:16:26Z</time>
      </trkpt>
      <trkpt lat="47.43108" lon="4.95039">
        <ele>337.2</ele>
        <time>2017-03-28T13:16:32Z</time>
      </trkpt>
      <trkpt lat="47.43101" lon="4.95029">
        <ele>337.3</ele>
        <time>2017-03-28T13:16:40Z</time>
      </trkpt>
      <trkpt lat="47.43096" lon="4.95018">
        <ele>337.2</ele>
        <time>2017-03-28T13:16:48Z</time>
      </trkpt>
      <trkpt lat="47.43091" lon="4.95005">
        <ele>337.2</ele>
        <time>2017-03-28T13:17:04Z</time>
      </trkpt>
      <trkpt lat="47.43087" lon="4.94992">
        <ele>337</ele>
        <time>2017-03-28T13:17:11Z</time>
      </trkpt>
      <trkpt lat="47.43084" lon="4.94979">
        <ele>336.8</ele>
        <time>2017-03-28T13:17:19Z</time>
      </trkpt>
      <trkpt lat="47.43081" lon="4.94966">
        <ele>336.5</ele>
        <time>2017-03-28T13:17:28Z</time>
      </trkpt>
      <trkpt lat="47.43077" lon="4.94954">
        <ele>336.2</ele>
        <time>2017-03-28T13:17:36Z</time>
      </trkpt>
      <trkpt lat="47.43072" lon="4.94941">
        <ele>336.2</ele>
        <time>2017-03-28T13:17:45Z</time>
      </trkpt>
      <trkpt lat="47.43068" lon="4.94927">
        <ele>336.2</ele>
        <time>2017-03-28T13:17:53Z</time>
      </trkpt>
      <trkpt lat="47.43065" lon="4.94915">
        <ele>336.9</ele>
        <time>2017-03-28T13:19:47Z</time>
      </trkpt>
      <trkpt lat="47.4306" lon="4.94902">
        <ele>337.1</ele>
        <time>2017-03-28T13:19:57Z</time>
      </trkpt>
      <trkpt lat="47.43057" lon="4.9489">
        <ele>337.4</ele>
        <time>2017-03-28T13:20:05Z</time>
      </trkpt>
      <trkpt lat="47.43052" lon="4.94878">
        <ele>337.6</ele>
        <time>2017-03-28T13:20:13Z</time>
      </trkpt>
      <trkpt lat="47.43046" lon="4.94866">
        <ele>337.7</ele>
        <time>2017-03-28T13:20:21Z</time>
      </trkpt>
      <trkpt lat="47.43044" lon="4.94853">
        <ele>338.3</ele>
        <time>2017-03-28T13:20:30Z</time>
      </trkpt>
      <trkpt lat="47.43041" lon="4.94838">
        <ele>337.8</ele>
        <time>2017-03-28T13:20:37Z</time>
      </trkpt>
      <trkpt lat="47.43041" lon="4.94823">
        <ele>337.8</ele>
        <time>2017-03-28T13:20:44Z</time>
      </trkpt>
      <trkpt lat="47.43037" lon="4.94809">
        <ele>337.8</ele>
        <time>2017-03-28T13:20:51Z</time>
      </trkpt>
      <trkpt lat="47.43036" lon="4.94796">
        <ele>337.6</ele>
        <time>2017-03-28T13:20:57Z</time>
      </trkpt>
      <trkpt lat="47.43033" lon="4.94782">
        <ele>337.7</ele>
        <time>2017-03-28T13:21:04Z</time>
      </trkpt>
      <trkpt lat="47.43032" lon="4.94768">
        <ele>337.6</ele>
        <time>2017-03-28T13:21:12Z</time>
      </trkpt>
      <trkpt lat="47.4303" lon="4.94753">
        <ele>337.4</ele>
        <time>2017-03-28T13:21:20Z</time>
      </trkpt>
      <trkpt lat="47.4303" lon="4.94738">
        <ele>337.7</ele>
        <time>2017-03-28T13:21:27Z</time>
      </trkpt>
      <trkpt lat="47.43027" lon="4.94724">
        <ele>337.8</ele>
        <time>2017-03-28T13:21:34Z</time>
      </trkpt>
      <trkpt lat="47.43023" lon="4.94712">
        <ele>337.9</ele>
        <time>2017-03-28T13:21:42Z</time>
      </trkpt>
      <trkpt lat="47.4302" lon="4.94699">
        <ele>338.5</ele>
        <time>2017-03-28T13:21:51Z</time>
      </trkpt>
      <trkpt lat="47.43018" lon="4.94685">
        <ele>339.3</ele>
        <time>2017-03-28T13:22:00Z</time>
      </trkpt>
      <trkpt lat="47.43015" lon="4.94672">
        <ele>339.5</ele>
        <time>2017-03-28T13:22:09Z</time>
      </trkpt>
      <trkpt lat="47.43009" lon="4.9466">
        <ele>339.9</ele>
        <time>2017-03-28T13:22:21Z</time>
      </trkpt>
      <trkpt lat="47.43007" lon="4.94646">
        <ele>340.3</ele>
        <time>2017-03-28T13:22:29Z</time>
      </trkpt>
      <trkpt lat="47.43005" lon="4.94633">
        <ele>340.5</ele>
        <time>2017-03-28T13:22:36Z</time>
      </trkpt>
      <trkpt lat="47.43002" lon="4.94619">
        <ele>340.6</ele>
        <time>2017-03-28T13:22:43Z</time>
      </trkpt>
      <trkpt lat="47.42999" lon="4.94605">
        <ele>340.8</ele>
        <time>2017-03-28T13:22:50Z</time>
      </trkpt>
      <trkpt lat="47.42997" lon="4.94592">
        <ele>340.9</ele>
        <time>2017-03-28T13:22:57Z</time>
      </trkpt>
      <trkpt lat="47.42994" lon="4.94578">
        <ele>341.2</ele>
        <time>2017-03-28T13:23:05Z</time>
      </trkpt>
      <trkpt lat="47.4299" lon="4.94565">
        <ele>341</ele>
        <time>2017-03-28T13:23:12Z</time>
      </trkpt>
      <trkpt lat="47.42989" lon="4.9455">
        <ele>340.8</ele>
        <time>2017-03-28T13:23:20Z</time>
      </trkpt>
      <trkpt lat="47.42984" lon="4.94537">
        <ele>340.9</ele>
        <time>2017-03-28T13:23:28Z</time>
      </trkpt>
      <trkpt lat="47.42979" lon="4.94523">
        <ele>341.2</ele>
        <time>2017-03-28T13:23:36Z</time>
      </trkpt>
      <trkpt lat="47.42975" lon="4.94511">
        <ele>341.5</ele>
        <time>2017-03-28T13:23:44Z</time>
      </trkpt>
      <trkpt lat="47.42971" lon="4.94498">
        <ele>341.6</ele>
        <time>2017-03-28T13:23:51Z</time>
      </trkpt>
      <trkpt lat="47.42966" lon="4.94486">
        <ele>341.8</ele>
        <time>2017-03-28T13:23:58Z</time>
      </trkpt>
      <trkpt lat="47.4296" lon="4.94475">
        <ele>341.7</ele>
        <time>2017-03-28T13:24:05Z</time>
      </trkpt>
      <trkpt lat="47.42954" lon="4.94465">
        <ele>341.5</ele>
        <time>2017-03-28T13:24:12Z</time>
      </trkpt>
      <trkpt lat="47.42949" lon="4.94454">
        <ele>341.4</ele>
        <time>2017-03-28T13:24:20Z</time>
      </trkpt>
      <trkpt lat="47.42942" lon="4.94444">
        <ele>340.9</ele>
        <time>2017-03-28T13:24:29Z</time>
      </trkpt>
      <trkpt lat="47.42936" lon="4.94432">
        <ele>340.6</ele>
        <time>2017-03-28T13:24:37Z</time>
      </trkpt>
      <trkpt lat="47.42931" lon="4.9442">
        <ele>339.8</ele>
        <time>2017-03-28T13:24:45Z</time>
      </trkpt>
      <trkpt lat="47.42923" lon="4.9441">
        <ele>339.2</ele>
        <time>2017-03-28T13:24:53Z</time>
      </trkpt>
      <trkpt lat="47.42915" lon="4.94406">
        <ele>339.2</ele>
        <time>2017-03-28T13:26:17Z</time>
      </trkpt>
      <trkpt lat="47.42907" lon="4.94398">
        <ele>338.4</ele>
        <time>2017-03-28T13:26:52Z</time>
      </trkpt>
      <trkpt lat="47.42899" lon="4.94403">
        <ele>338.4</ele>
        <time>2017-03-28T13:27:06Z</time>
      </trkpt>
      <trkpt lat="47.4289" lon="4.94406">
        <ele>338.9</ele>
        <time>2017-03-28T13:27:23Z</time>
      </trkpt>
      <trkpt lat="47.42882" lon="4.94413">
        <ele>339.5</ele>
        <time>2017-03-28T13:27:35Z</time>
      </trkpt>
      <trkpt lat="47.42872" lon="4.9442">
        <ele>340.2</ele>
        <time>2017-03-28T13:27:44Z</time>
      </trkpt>
      <trkpt lat="47.42863" lon="4.94425">
        <ele>340.7</ele>
        <time>2017-03-28T13:27:54Z</time>
      </trkpt>
      <trkpt lat="47.42854" lon="4.94432">
        <ele>341.6</ele>
        <time>2017-03-28T13:28:03Z</time>
      </trkpt>
      <trkpt lat="47.42845" lon="4.94438">
        <ele>342.3</ele>
        <time>2017-03-28T13:28:17Z</time>
      </trkpt>
      <trkpt lat="47.42835" lon="4.94443">
        <ele>342.7</ele>
        <time>2017-03-28T13:28:25Z</time>
      </trkpt>
      <trkpt lat="47.42826" lon="4.94449">
        <ele>343.7</ele>
        <time>2017-03-28T13:28:37Z</time>
      </trkpt>
      <trkpt lat="47.42817" lon="4.94454">
        <ele>344</ele>
        <time>2017-03-28T13:28:47Z</time>
      </trkpt>
      <trkpt lat="47.42809" lon="4.9446">
        <ele>344.9</ele>
        <time>2017-03-28T13:28:59Z</time>
      </trkpt>
      <trkpt lat="47.428" lon="4.94464">
        <ele>345</ele>
        <time>2017-03-28T13:29:08Z</time>
      </trkpt>
      <trkpt lat="47.42791" lon="4.94468">
        <ele>345.5</ele>
        <time>2017-03-28T13:29:23Z</time>
      </trkpt>
      <trkpt lat="47.42784" lon="4.94477">
        <ele>346.1</ele>
        <time>2017-03-28T13:29:51Z</time>
      </trkpt>
      <trkpt lat="47.42775" lon="4.94482">
        <ele>346.8</ele>
        <time>2017-03-28T13:30:04Z</time>
      </trkpt>
      <trkpt lat="47.42765" lon="4.94488">
        <ele>347.3</ele>
        <time>2017-03-28T13:30:12Z</time>
      </trkpt>
      <trkpt lat="47.42757" lon="4.94492">
        <ele>347.8</ele>
        <time>2017-03-28T13:30:24Z</time>
      </trkpt>
      <trkpt lat="47.42747" lon="4.94493">
        <ele>348.4</ele>
        <time>2017-03-28T13:30:34Z</time>
      </trkpt>
      <trkpt lat="47.42738" lon="4.94495">
        <ele>349.1</ele>
        <time>2017-03-28T13:30:43Z</time>
      </trkpt>
      <trkpt lat="47.42729" lon="4.94499">
        <ele>349</ele>
        <time>2017-03-28T13:30:51Z</time>
      </trkpt>
      <trkpt lat="47.4272" lon="4.94501">
        <ele>350</ele>
        <time>2017-03-28T13:31:01Z</time>
      </trkpt>
      <trkpt lat="47.4271" lon="4.94502">
        <ele>350.4</ele>
        <time>2017-03-28T13:31:10Z</time>
      </trkpt>
      <trkpt lat="47.427" lon="4.94504">
        <ele>351.1</ele>
        <time>2017-03-28T13:31:19Z</time>
      </trkpt>
      <trkpt lat="47.42691" lon="4.94505">
        <ele>351.5</ele>
        <time>2017-03-28T13:31:27Z</time>
      </trkpt>
      <trkpt lat="47.42681" lon="4.94506">
        <ele>352.1</ele>
        <time>2017-03-28T13:31:36Z</time>
      </trkpt>
      <trkpt lat="47.42671" lon="4.94506">
        <ele>352.6</ele>
        <time>2017-03-28T13:31:44Z</time>
      </trkpt>
      <trkpt lat="47.42661" lon="4.94505">
        <ele>353.1</ele>
        <time>2017-03-28T13:31:52Z</time>
      </trkpt>
      <trkpt lat="47.42652" lon="4.94505">
        <ele>353.6</ele>
        <time>2017-03-28T13:32:01Z</time>
      </trkpt>
      <trkpt lat="47.42642" lon="4.94504">
        <ele>354.3</ele>
        <time>2017-03-28T13:32:17Z</time>
      </trkpt>
      <trkpt lat="47.42633" lon="4.94503">
        <ele>355.1</ele>
        <time>2017-03-28T13:33:43Z</time>
      </trkpt>
      <trkpt lat="47.42623" lon="4.94501">
        <ele>355.6</ele>
        <time>2017-03-28T13:33:53Z</time>
      </trkpt>
      <trkpt lat="47.42614" lon="4.945">
        <ele>355.9</ele>
        <time>2017-03-28T13:34:04Z</time>
      </trkpt>
      <trkpt lat="47.42605" lon="4.94497">
        <ele>356.9</ele>
        <time>2017-03-28T13:34:16Z</time>
      </trkpt>
      <trkpt lat="47.42596" lon="4.94495">
        <ele>357.7</ele>
        <time>2017-03-28T13:34:26Z</time>
      </trkpt>
      <trkpt lat="47.42586" lon="4.94492">
        <ele>358.4</ele>
        <time>2017-03-28T13:34:35Z</time>
      </trkpt>
      <trkpt lat="47.42579" lon="4.94484">
        <ele>358.9</ele>
        <time>2017-03-28T13:34:44Z</time>
      </trkpt>
      <trkpt lat="47.4257" lon="4.94479">
        <ele>359.4</ele>
        <time>2017-03-28T13:34:53Z</time>
      </trkpt>
      <trkpt lat="47.42561" lon="4.94474">
        <ele>360</ele>
        <time>2017-03-28T13:35:03Z</time>
      </trkpt>
      <trkpt lat="47.42552" lon="4.94474">
        <ele>360.6</ele>
        <time>2017-03-28T13:35:11Z</time>
      </trkpt>
      <trkpt lat="47.42545" lon="4.94467">
        <ele>361.4</ele>
        <time>2017-03-28T13:35:22Z</time>
      </trkpt>
      <trkpt lat="47.42536" lon="4.9447">
        <ele>361.9</ele>
        <time>2017-03-28T13:36:11Z</time>
      </trkpt>
      <trkpt lat="47.42529" lon="4.9446">
        <ele>362.9</ele>
        <time>2017-03-28T13:36:21Z</time>
      </trkpt>
      <trkpt lat="47.42521" lon="4.94454">
        <ele>363.6</ele>
        <time>2017-03-28T13:36:30Z</time>
      </trkpt>
      <trkpt lat="47.42513" lon="4.94446">
        <ele>364.4</ele>
        <time>2017-03-28T13:36:39Z</time>
      </trkpt>
      <trkpt lat="47.42503" lon="4.94443">
        <ele>365.2</ele>
        <time>2017-03-28T13:36:49Z</time>
      </trkpt>
      <trkpt lat="47.42494" lon="4.94437">
        <ele>366.2</ele>
        <time>2017-03-28T13:37:00Z</time>
      </trkpt>
      <trkpt lat="47.42485" lon="4.94434">
        <ele>366.6</ele>
        <time>2017-03-28T13:37:08Z</time>
      </trkpt>
      <trkpt lat="47.42475" lon="4.94428">
        <ele>367.5</ele>
        <time>2017-03-28T13:37:18Z</time>
      </trkpt>
      <trkpt lat="47.42469" lon="4.9442">
        <ele>368.4</ele>
        <time>2017-03-28T13:38:28Z</time>
      </trkpt>
      <trkpt lat="47.42459" lon="4.94419">
        <ele>368.9</ele>
        <time>2017-03-28T13:38:35Z</time>
      </trkpt>
      <trkpt lat="47.42449" lon="4.94416">
        <ele>369.7</ele>
        <time>2017-03-28T13:38:45Z</time>
      </trkpt>
      <trkpt lat="47.4244" lon="4.94413">
        <ele>370.9</ele>
        <time>2017-03-28T13:38:56Z</time>
      </trkpt>
      <trkpt lat="47.42432" lon="4.94406">
        <ele>371.4</ele>
        <time>2017-03-28T13:39:04Z</time>
      </trkpt>
      <trkpt lat="47.42423" lon="4.94406">
        <ele>372.5</ele>
        <time>2017-03-28T13:39:13Z</time>
      </trkpt>
      <trkpt lat="47.42414" lon="4.94406">
        <ele>373.4</ele>
        <time>2017-03-28T13:39:22Z</time>
      </trkpt>
      <trkpt lat="47.42405" lon="4.94402">
        <ele>374.2</ele>
        <time>2017-03-28T13:39:32Z</time>
      </trkpt>
      <trkpt lat="47.42396" lon="4.944">
        <ele>374.5</ele>
        <time>2017-03-28T13:39:41Z</time>
      </trkpt>
      <trkpt lat="47.42386" lon="4.94397">
        <ele>375.2</ele>
        <time>2017-03-28T13:39:51Z</time>
      </trkpt>
      <trkpt lat="47.42377" lon="4.94398">
        <ele>376</ele>
        <time>2017-03-28T13:40:09Z</time>
      </trkpt>
      <trkpt lat="47.42367" lon="4.94398">
        <ele>376.9</ele>
        <time>2017-03-28T13:40:58Z</time>
      </trkpt>
      <trkpt lat="47.42359" lon="4.9439">
        <ele>377.5</ele>
        <time>2017-03-28T13:41:07Z</time>
      </trkpt>
      <trkpt lat="47.4235" lon="4.94387">
        <ele>378.7</ele>
        <time>2017-03-28T13:41:16Z</time>
      </trkpt>
      <trkpt lat="47.4234" lon="4.94384">
        <ele>379.4</ele>
        <time>2017-03-28T13:41:26Z</time>
      </trkpt>
      <trkpt lat="47.42332" lon="4.9438">
        <ele>380.2</ele>
        <time>2017-03-28T13:41:38Z</time>
      </trkpt>
      <trkpt lat="47.42323" lon="4.94379">
        <ele>381.3</ele>
        <time>2017-03-28T13:41:48Z</time>
      </trkpt>
      <trkpt lat="47.42314" lon="4.94375">
        <ele>381.8</ele>
        <time>2017-03-28T13:41:57Z</time>
      </trkpt>
      <trkpt lat="47.42305" lon="4.9437">
        <ele>383.3</ele>
        <time>2017-03-28T13:42:11Z</time>
      </trkpt>
      <trkpt lat="47.42296" lon="4.94371">
        <ele>384.1</ele>
        <time>2017-03-28T13:43:23Z</time>
      </trkpt>
      <trkpt lat="47.42287" lon="4.94368">
        <ele>385</ele>
        <time>2017-03-28T13:43:33Z</time>
      </trkpt>
      <trkpt lat="47.42277" lon="4.94368">
        <ele>386</ele>
        <time>2017-03-28T13:43:42Z</time>
      </trkpt>
      <trkpt lat="47.42267" lon="4.94367">
        <ele>386.9</ele>
        <time>2017-03-28T13:43:53Z</time>
      </trkpt>
      <trkpt lat="47.42258" lon="4.9437">
        <ele>387.6</ele>
        <time>2017-03-28T13:44:01Z</time>
      </trkpt>
      <trkpt lat="47.42249" lon="4.94368">
        <ele>388.6</ele>
        <time>2017-03-28T13:44:13Z</time>
      </trkpt>
      <trkpt lat="47.4224" lon="4.94369">
        <ele>389.5</ele>
        <time>2017-03-28T13:44:20Z</time>
      </trkpt>
      <trkpt lat="47.42231" lon="4.94368">
        <ele>390.7</ele>
        <time>2017-03-28T13:44:32Z</time>
      </trkpt>
      <trkpt lat="47.42221" lon="4.94369">
        <ele>391.4</ele>
        <time>2017-03-28T13:44:39Z</time>
      </trkpt>
      <trkpt lat="47.42212" lon="4.94367">
        <ele>392.7</ele>
        <time>2017-03-28T13:45:57Z</time>
      </trkpt>
      <trkpt lat="47.42202" lon="4.94366">
        <ele>394</ele>
        <time>2017-03-28T13:46:12Z</time>
      </trkpt>
      <trkpt lat="47.42193" lon="4.94362">
        <ele>395.5</ele>
        <time>2017-03-28T13:46:26Z</time>
      </trkpt>
      <trkpt lat="47.42183" lon="4.94362">
        <ele>396.4</ele>
        <time>2017-03-28T13:46:34Z</time>
      </trkpt>
      <trkpt lat="47.42174" lon="4.94364">
        <ele>397.8</ele>
        <time>2017-03-28T13:46:44Z</time>
      </trkpt>
      <trkpt lat="47.42165" lon="4.94363">
        <ele>399.1</ele>
        <time>2017-03-28T13:47:31Z</time>
      </trkpt>
      <trkpt lat="47.42156" lon="4.94362">
        <ele>400.6</ele>
        <time>2017-03-28T13:47:44Z</time>
      </trkpt>
      <trkpt lat="47.42146" lon="4.94363">
        <ele>401.9</ele>
        <time>2017-03-28T13:47:56Z</time>
      </trkpt>
      <trkpt lat="47.42137" lon="4.9436">
        <ele>403.9</ele>
        <time>2017-03-28T13:48:10Z</time>
      </trkpt>
      <trkpt lat="47.42128" lon="4.9436">
        <ele>404.9</ele>
        <time>2017-03-28T13:48:20Z</time>
      </trkpt>
      <trkpt lat="47.42119" lon="4.94355">
        <ele>406.3</ele>
        <time>2017-03-28T13:49:09Z</time>
      </trkpt>
      <trkpt lat="47.42111" lon="4.94351">
        <ele>407.6</ele>
        <time>2017-03-28T13:49:22Z</time>
      </trkpt>
      <trkpt lat="47.42103" lon="4.94344">
        <ele>408.8</ele>
        <time>2017-03-28T13:49:34Z</time>
      </trkpt>
      <trkpt lat="47.42093" lon="4.9434">
        <ele>409.8</ele>
        <time>2017-03-28T13:49:43Z</time>
      </trkpt>
      <trkpt lat="47.42086" lon="4.94331">
        <ele>411.5</ele>
        <time>2017-03-28T13:49:55Z</time>
      </trkpt>
      <trkpt lat="47.42076" lon="4.94329">
        <ele>413</ele>
        <time>2017-03-28T13:51:09Z</time>
      </trkpt>
      <trkpt lat="47.42068" lon="4.94323">
        <ele>414.4</ele>
        <time>2017-03-28T13:51:18Z</time>
      </trkpt>
      <trkpt lat="47.4206" lon="4.94315">
        <ele>415.4</ele>
        <time>2017-03-28T13:51:29Z</time>
      </trkpt>
      <trkpt lat="47.42052" lon="4.94306">
        <ele>416.6</ele>
        <time>2017-03-28T13:51:38Z</time>
      </trkpt>
      <trkpt lat="47.42044" lon="4.943">
        <ele>418.1</ele>
        <time>2017-03-28T13:51:50Z</time>
      </trkpt>
      <trkpt lat="47.42036" lon="4.94291">
        <ele>419.6</ele>
        <time>2017-03-28T13:52:02Z</time>
      </trkpt>
      <trkpt lat="47.42027" lon="4.94293">
        <ele>420.7</ele>
        <time>2017-03-28T13:53:01Z</time>
      </trkpt>
      <trkpt lat="47.42024" lon="4.94279">
        <ele>422.3</ele>
        <time>2017-03-28T13:53:13Z</time>
      </trkpt>
      <trkpt lat="47.42018" lon="4.9427">
        <ele>424.6</ele>
        <time>2017-03-28T13:53:29Z</time>
      </trkpt>
      <trkpt lat="47.42011" lon="4.9426">
        <ele>426.1</ele>
        <time>2017-03-28T13:53:39Z</time>
      </trkpt>
      <trkpt lat="47.42003" lon="4.94251">
        <ele>427.4</ele>
        <time>2017-03-28T13:54:42Z</time>
      </trkpt>
      <trkpt lat="47.41997" lon="4.9424">
        <ele>429.2</ele>
        <time>2017-03-28T13:55:06Z</time>
      </trkpt>
      <trkpt lat="47.4199" lon="4.94229">
        <ele>430.6</ele>
        <time>2017-03-28T13:55:17Z</time>
      </trkpt>
      <trkpt lat="47.41983" lon="4.9422">
        <ele>432.1</ele>
        <time>2017-03-28T13:55:30Z</time>
      </trkpt>
      <trkpt lat="47.41976" lon="4.9421">
        <ele>433.5</ele>
        <time>2017-03-28T13:55:40Z</time>
      </trkpt>
      <trkpt lat="47.41969" lon="4.942">
        <ele>434.7</ele>
        <time>2017-03-28T13:56:34Z</time>
      </trkpt>
      <trkpt lat="47.41966" lon="4.94187">
        <ele>436.5</ele>
        <time>2017-03-28T13:56:48Z</time>
      </trkpt>
      <trkpt lat="47.41959" lon="4.94177">
        <ele>437.9</ele>
        <time>2017-03-28T13:57:00Z</time>
      </trkpt>
      <trkpt lat="47.41954" lon="4.94165">
        <ele>438.8</ele>
        <time>2017-03-28T13:57:09Z</time>
      </trkpt>
      <trkpt lat="47.41949" lon="4.94153">
        <ele>439.5</ele>
        <time>2017-03-28T13:57:19Z</time>
      </trkpt>
      <trkpt lat="47.41942" lon="4.94144">
        <ele>440.3</ele>
        <time>2017-03-28T13:57:29Z</time>
      </trkpt>
      <trkpt lat="47.41935" lon="4.94135">
        <ele>441</ele>
        <time>2017-03-28T13:57:38Z</time>
      </trkpt>
      <trkpt lat="47.41929" lon="4.94125">
        <ele>441.9</ele>
        <time>2017-03-28T13:57:55Z</time>
      </trkpt>
      <trkpt lat="47.41922" lon="4.94115">
        <ele>443.7</ele>
        <time>2017-03-28T13:59:10Z</time>
      </trkpt>
      <trkpt lat="47.41914" lon="4.94109">
        <ele>444.8</ele>
        <time>2017-03-28T13:59:19Z</time>
      </trkpt>
      <trkpt lat="47.41907" lon="4.941">
        <ele>446.5</ele>
        <time>2017-03-28T13:59:30Z</time>
      </trkpt>
      <trkpt lat="47.41898" lon="4.94094">
        <ele>448</ele>
        <time>2017-03-28T13:59:42Z</time>
      </trkpt>
      <trkpt lat="47.41889" lon="4.94087">
        <ele>449.8</ele>
        <time>2017-03-28T13:59:52Z</time>
      </trkpt>
      <trkpt lat="47.4188" lon="4.94081">
        <ele>450.6</ele>
        <time>2017-03-28T14:00:01Z</time>
      </trkpt>
      <trkpt lat="47.41872" lon="4.94075">
        <ele>450.9</ele>
        <time>2017-03-28T14:00:25Z</time>
      </trkpt>
      <trkpt lat="47.41865" lon="4.94066">
        <ele>452.7</ele>
        <time>2017-03-28T14:01:28Z</time>
      </trkpt>
      <trkpt lat="47.41856" lon="4.94062">
        <ele>453.9</ele>
        <time>2017-03-28T14:01:40Z</time>
      </trkpt>
      <trkpt lat="47.41847" lon="4.94055">
        <ele>455.3</ele>
        <time>2017-03-28T14:01:51Z</time>
      </trkpt>
      <trkpt lat="47.41838" lon="4.94051">
        <ele>456</ele>
        <time>2017-03-28T14:02:00Z</time>
      </trkpt>
      <trkpt lat="47.41829" lon="4.94051">
        <ele>457</ele>
        <time>2017-03-28T14:02:10Z</time>
      </trkpt>
      <trkpt lat="47.4182" lon="4.94052">
        <ele>457.6</ele>
        <time>2017-03-28T14:02:19Z</time>
      </trkpt>
      <trkpt lat="47.4181" lon="4.94052">
        <ele>457.9</ele>
        <time>2017-03-28T14:02:27Z</time>
      </trkpt>
      <trkpt lat="47.418" lon="4.94049">
        <ele>458.7</ele>
        <time>2017-03-28T14:02:36Z</time>
      </trkpt>
      <trkpt lat="47.41791" lon="4.94045">
        <ele>460.1</ele>
        <time>2017-03-28T14:03:50Z</time>
      </trkpt>
      <trkpt lat="47.41783" lon="4.94038">
        <ele>460.7</ele>
        <time>2017-03-28T14:03:59Z</time>
      </trkpt>
      <trkpt lat="47.41773" lon="4.94037">
        <ele>461.8</ele>
        <time>2017-03-28T14:04:09Z</time>
      </trkpt>
      <trkpt lat="47.41764" lon="4.94032">
        <ele>462</ele>
        <time>2017-03-28T14:04:18Z</time>
      </trkpt>
      <trkpt lat="47.41755" lon="4.94029">
        <ele>463.2</ele>
        <time>2017-03-28T14:04:31Z</time>
      </trkpt>
      <trkpt lat="47.41746" lon="4.94026">
        <ele>463.7</ele>
        <time>2017-03-28T14:04:38Z</time>
      </trkpt>
      <trkpt lat="47.41736" lon="4.9402">
        <ele>464.5</ele>
        <time>2017-03-28T14:04:50Z</time>
      </trkpt>
      <trkpt lat="47.41729" lon="4.94012">
        <ele>465.7</ele>
        <time>2017-03-28T14:05:04Z</time>
      </trkpt>
      <trkpt lat="47.41719" lon="4.94012">
        <ele>467</ele>
        <time>2017-03-28T14:06:04Z</time>
      </trkpt>
      <trkpt lat="47.4171" lon="4.94007">
        <ele>467.8</ele>
        <time>2017-03-28T14:06:12Z</time>
      </trkpt>
      <trkpt lat="47.417" lon="4.94008">
        <ele>468.6</ele>
        <time>2017-03-28T14:06:19Z</time>
      </trkpt>
      <trkpt lat="47.41691" lon="4.94003">
        <ele>469.4</ele>
        <time>2017-03-28T14:06:26Z</time>
      </trkpt>
      <trkpt lat="47.41682" lon="4.94">
        <ele>471.1</ele>
        <time>2017-03-28T14:06:38Z</time>
      </trkpt>
      <trkpt lat="47.41673" lon="4.93996">
        <ele>471.6</ele>
        <time>2017-03-28T14:06:46Z</time>
      </trkpt>
      <trkpt lat="47.41664" lon="4.93994">
        <ele>472.1</ele>
        <time>2017-03-28T14:06:53Z</time>
      </trkpt>
      <trkpt lat="47.41655" lon="4.93989">
        <ele>473.1</ele>
        <time>2017-03-28T14:07:54Z</time>
      </trkpt>
      <trkpt lat="47.41646" lon="4.93985">
        <ele>474</ele>
        <time>2017-03-28T14:08:07Z</time>
      </trkpt>
      <trkpt lat="47.41637" lon="4.9398">
        <ele>474.8</ele>
        <time>2017-03-28T14:08:16Z</time>
      </trkpt>
      <trkpt lat="47.41628" lon="4.93975">
        <ele>475.9</ele>
        <time>2017-03-28T14:08:27Z</time>
      </trkpt>
      <trkpt lat="47.41619" lon="4.93971">
        <ele>476.7</ele>
        <time>2017-03-28T14:08:35Z</time>
      </trkpt>
      <trkpt lat="47.41611" lon="4.93965">
        <ele>477.4</ele>
        <time>2017-03-28T14:08:43Z</time>
      </trkpt>
      <trkpt lat="47.41602" lon="4.93957">
        <ele>478.7</ele>
        <time>2017-03-28T14:08:52Z</time>
      </trkpt>
      <trkpt lat="47.41593" lon="4.93956">
        <ele>479.5</ele>
        <time>2017-03-28T14:09:00Z</time>
      </trkpt>
      <trkpt lat="47.41585" lon="4.93961">
        <ele>480.2</ele>
        <time>2017-03-28T14:09:42Z</time>
      </trkpt>
      <trkpt lat="47.41575" lon="4.93961">
        <ele>480.8</ele>
        <time>2017-03-28T14:10:16Z</time>
      </trkpt>
      <trkpt lat="47.41566" lon="4.93961">
        <ele>481.6</ele>
        <time>2017-03-28T14:10:22Z</time>
      </trkpt>
      <trkpt lat="47.41556" lon="4.93959">
        <ele>482.5</ele>
        <time>2017-03-28T14:10:29Z</time>
      </trkpt>
      <trkpt lat="47.41548" lon="4.93955">
        <ele>483.4</ele>
        <time>2017-03-28T14:10:40Z</time>
      </trkpt>
      <trkpt lat="47.41538" lon="4.93955">
        <ele>484.5</ele>
        <time>2017-03-28T14:10:50Z</time>
      </trkpt>
      <trkpt lat="47.41528" lon="4.93952">
        <ele>484.9</ele>
        <time>2017-03-28T14:10:57Z</time>
      </trkpt>
      <trkpt lat="47.41519" lon="4.93953">
        <ele>486.3</ele>
        <time>2017-03-28T14:11:29Z</time>
      </trkpt>
      <trkpt lat="47.41517" lon="4.93966">
        <ele>488.2</ele>
        <time>2017-03-28T14:12:12Z</time>
      </trkpt>
      <trkpt lat="47.41515" lon="4.9398">
        <ele>490.8</ele>
        <time>2017-03-28T14:12:25Z</time>
      </trkpt>
      <trkpt lat="47.41518" lon="4.93993">
        <ele>492.3</ele>
        <time>2017-03-28T14:12:41Z</time>
      </trkpt>
      <trkpt lat="47.41519" lon="4.94006">
        <ele>494</ele>
        <time>2017-03-28T14:14:20Z</time>
      </trkpt>
      <trkpt lat="47.41517" lon="4.94019">
        <ele>495.3</ele>
        <time>2017-03-28T14:14:39Z</time>
      </trkpt>
      <trkpt lat="47.41516" lon="4.94033">
        <ele>495.7</ele>
        <time>2017-03-28T14:18:11Z</time>
      </trkpt>
      <trkpt lat="47.41513" lon="4.9402">
        <ele>494.8</ele>
        <time>2017-03-28T14:21:11Z</time>
      </trkpt>
      <trkpt lat="47.41507" lon="4.94009">
        <ele>494.3</ele>
        <time>2017-03-28T14:21:21Z</time>
      </trkpt>
      <trkpt lat="47.41501" lon="4.93997">
        <ele>494.1</ele>
        <time>2017-03-28T14:21:31Z</time>
      </trkpt>
      <trkpt lat="47.41494" lon="4.93988">
        <ele>494.5</ele>
        <time>2017-03-28T14:21:41Z</time>
      </trkpt>
      <trkpt lat="47.41486" lon="4.9398">
        <ele>496</ele>
        <time>2017-03-28T14:21:55Z</time>
      </trkpt>
      <trkpt lat="47.41478" lon="4.93975">
        <ele>496.9</ele>
        <time>2017-03-28T14:22:08Z</time>
      </trkpt>
      <trkpt lat="47.4147" lon="4.93966">
        <ele>497.4</ele>
        <time>2017-03-28T14:22:20Z</time>
      </trkpt>
      <trkpt lat="47.41461" lon="4.93965">
        <ele>497.6</ele>
        <time>2017-03-28T14:22:33Z</time>
      </trkpt>
      <trkpt lat="47.41452" lon="4.93958">
        <ele>498</ele>
        <time>2017-03-28T14:22:41Z</time>
      </trkpt>
      <trkpt lat="47.41444" lon="4.93953">
        <ele>498.5</ele>
        <time>2017-03-28T14:22:49Z</time>
      </trkpt>
      <trkpt lat="47.41435" lon="4.93947">
        <ele>498.6</ele>
        <time>2017-03-28T14:22:57Z</time>
      </trkpt>
      <trkpt lat="47.41425" lon="4.93944">
        <ele>498.4</ele>
        <time>2017-03-28T14:23:04Z</time>
      </trkpt>
      <trkpt lat="47.41417" lon="4.93938">
        <ele>498.5</ele>
        <time>2017-03-28T14:23:12Z</time>
      </trkpt>
      <trkpt lat="47.41409" lon="4.9393">
        <ele>498.8</ele>
        <time>2017-03-28T14:23:23Z</time>
      </trkpt>
      <trkpt lat="47.41401" lon="4.93925">
        <ele>499</ele>
        <time>2017-03-28T14:23:32Z</time>
      </trkpt>
      <trkpt lat="47.41391" lon="4.93919">
        <ele>499</ele>
        <time>2017-03-28T14:23:40Z</time>
      </trkpt>
      <trkpt lat="47.41383" lon="4.93914">
        <ele>499.7</ele>
        <time>2017-03-28T14:23:50Z</time>
      </trkpt>
      <trkpt lat="47.41374" lon="4.93909">
        <ele>499.7</ele>
        <time>2017-03-28T14:23:57Z</time>
      </trkpt>
      <trkpt lat="47.41365" lon="4.93904">
        <ele>499.8</ele>
        <time>2017-03-28T14:24:05Z</time>
      </trkpt>
      <trkpt lat="47.41356" lon="4.93896">
        <ele>500</ele>
        <time>2017-03-28T14:24:13Z</time>
      </trkpt>
      <trkpt lat="47.41348" lon="4.93891">
        <ele>500.4</ele>
        <time>2017-03-28T14:24:20Z</time>
      </trkpt>
      <trkpt lat="47.41338" lon="4.93887">
        <ele>501.2</ele>
        <time>2017-03-28T14:24:27Z</time>
      </trkpt>
      <trkpt lat="47.41329" lon="4.93885">
        <ele>501.5</ele>
        <time>2017-03-28T14:24:34Z</time>
      </trkpt>
      <trkpt lat="47.4132" lon="4.93884">
        <ele>501.9</ele>
        <time>2017-03-28T14:24:41Z</time>
      </trkpt>
      <trkpt lat="47.4131" lon="4.93883">
        <ele>502.1</ele>
        <time>2017-03-28T14:24:50Z</time>
      </trkpt>
      <trkpt lat="47.413" lon="4.93882">
        <ele>502.6</ele>
        <time>2017-03-28T14:24:59Z</time>
      </trkpt>
      <trkpt lat="47.41291" lon="4.93881">
        <ele>503.5</ele>
        <time>2017-03-28T14:25:55Z</time>
      </trkpt>
      <trkpt lat="47.41282" lon="4.93877">
        <ele>504.6</ele>
        <time>2017-03-28T14:26:08Z</time>
      </trkpt>
      <trkpt lat="47.41273" lon="4.93875">
        <ele>505.6</ele>
        <time>2017-03-28T14:26:16Z</time>
      </trkpt>
      <trkpt lat="47.41263" lon="4.93875">
        <ele>506.4</ele>
        <time>2017-03-28T14:26:27Z</time>
      </trkpt>
      <trkpt lat="47.41254" lon="4.93872">
        <ele>507.2</ele>
        <time>2017-03-28T14:26:37Z</time>
      </trkpt>
      <trkpt lat="47.41244" lon="4.93872">
        <ele>508.3</ele>
        <time>2017-03-28T14:26:53Z</time>
      </trkpt>
      <trkpt lat="47.41235" lon="4.9387">
        <ele>508.8</ele>
        <time>2017-03-28T14:27:43Z</time>
      </trkpt>
      <trkpt lat="47.41226" lon="4.93866">
        <ele>510.7</ele>
        <time>2017-03-28T14:28:03Z</time>
      </trkpt>
      <trkpt lat="47.41217" lon="4.93864">
        <ele>511.2</ele>
        <time>2017-03-28T14:28:14Z</time>
      </trkpt>
      <trkpt lat="47.41212" lon="4.93876">
        <ele>513.2</ele>
        <time>2017-03-28T14:30:28Z</time>
      </trkpt>
      <trkpt lat="47.41205" lon="4.93885">
        <ele>514.6</ele>
        <time>2017-03-28T14:30:39Z</time>
      </trkpt>
      <trkpt lat="47.41196" lon="4.9389">
        <ele>516.2</ele>
        <time>2017-03-28T14:31:02Z</time>
      </trkpt>
      <trkpt lat="47.41189" lon="4.93897">
        <ele>517.5</ele>
        <time>2017-03-28T14:31:23Z</time>
      </trkpt>
      <trkpt lat="47.4118" lon="4.93903">
        <ele>518.5</ele>
        <time>2017-03-28T14:31:34Z</time>
      </trkpt>
      <trkpt lat="47.41172" lon="4.9391">
        <ele>519.9</ele>
        <time>2017-03-28T14:31:46Z</time>
      </trkpt>
      <trkpt lat="47.41163" lon="4.93915">
        <ele>520.5</ele>
        <time>2017-03-28T14:32:16Z</time>
      </trkpt>
      <trkpt lat="47.41154" lon="4.9392">
        <ele>521.8</ele>
        <time>2017-03-28T14:32:28Z</time>
      </trkpt>
      <trkpt lat="47.41145" lon="4.93922">
        <ele>523.2</ele>
        <time>2017-03-28T14:33:11Z</time>
      </trkpt>
      <trkpt lat="47.41136" lon="4.93925">
        <ele>523.8</ele>
        <time>2017-03-28T14:33:21Z</time>
      </trkpt>
      <trkpt lat="47.41126" lon="4.93927">
        <ele>524.7</ele>
        <time>2017-03-28T14:33:31Z</time>
      </trkpt>
      <trkpt lat="47.41117" lon="4.93929">
        <ele>525.7</ele>
        <time>2017-03-28T14:33:41Z</time>
      </trkpt>
      <trkpt lat="47.41113" lon="4.93941">
        <ele>526.6</ele>
        <time>2017-03-28T14:34:04Z</time>
      </trkpt>
      <trkpt lat="47.4112" lon="4.93951">
        <ele>525.3</ele>
        <time>2017-03-28T14:36:13Z</time>
      </trkpt>
      <trkpt lat="47.41127" lon="4.93959">
        <ele>525.2</ele>
        <time>2017-03-28T14:36:20Z</time>
      </trkpt>
      <trkpt lat="47.41134" lon="4.93967">
        <ele>525</ele>
        <time>2017-03-28T14:36:27Z</time>
      </trkpt>
      <trkpt lat="47.41141" lon="4.93976">
        <ele>525</ele>
        <time>2017-03-28T14:36:34Z</time>
      </trkpt>
      <trkpt lat="47.41149" lon="4.93985">
        <ele>525.2</ele>
        <time>2017-03-28T14:36:42Z</time>
      </trkpt>
      <trkpt lat="47.41156" lon="4.93993">
        <ele>524.9</ele>
        <time>2017-03-28T14:36:49Z</time>
      </trkpt>
      <trkpt lat="47.41165" lon="4.94002">
        <ele>525</ele>
        <time>2017-03-28T14:36:57Z</time>
      </trkpt>
      <trkpt lat="47.41172" lon="4.94012">
        <ele>525.1</ele>
        <time>2017-03-28T14:37:04Z</time>
      </trkpt>
      <trkpt lat="47.41179" lon="4.9402">
        <ele>525.2</ele>
        <time>2017-03-28T14:37:11Z</time>
      </trkpt>
      <trkpt lat="47.41186" lon="4.94028">
        <ele>525.2</ele>
        <time>2017-03-28T14:37:18Z</time>
      </trkpt>
      <trkpt lat="47.41194" lon="4.94037">
        <ele>524.6</ele>
        <time>2017-03-28T14:37:25Z</time>
      </trkpt>
      <trkpt lat="47.41201" lon="4.94045">
        <ele>524.4</ele>
        <time>2017-03-28T14:37:32Z</time>
      </trkpt>
      <trkpt lat="47.41209" lon="4.94055">
        <ele>524.5</ele>
        <time>2017-03-28T14:37:40Z</time>
      </trkpt>
      <trkpt lat="47.41217" lon="4.94063">
        <ele>524.6</ele>
        <time>2017-03-28T14:37:48Z</time>
      </trkpt>
      <trkpt lat="47.41226" lon="4.94072">
        <ele>524.6</ele>
        <time>2017-03-28T14:37:56Z</time>
      </trkpt>
      <trkpt lat="47.41234" lon="4.94081">
        <ele>524.8</ele>
        <time>2017-03-28T14:38:04Z</time>
      </trkpt>
      <trkpt lat="47.41241" lon="4.94089">
        <ele>524.8</ele>
        <time>2017-03-28T14:38:11Z</time>
      </trkpt>
      <trkpt lat="47.41249" lon="4.94097">
        <ele>524.8</ele>
        <time>2017-03-28T14:38:18Z</time>
      </trkpt>
      <trkpt lat="47.41256" lon="4.94107">
        <ele>524.8</ele>
        <time>2017-03-28T14:38:26Z</time>
      </trkpt>
      <trkpt lat="47.41264" lon="4.94115">
        <ele>524.8</ele>
        <time>2017-03-28T14:38:33Z</time>
      </trkpt>
      <trkpt lat="47.41271" lon="4.94123">
        <ele>524.7</ele>
        <time>2017-03-28T14:38:40Z</time>
      </trkpt>
      <trkpt lat="47.41279" lon="4.94132">
        <ele>524.5</ele>
        <time>2017-03-28T14:38:48Z</time>
      </trkpt>
      <trkpt lat="47.41287" lon="4.94141">
        <ele>524.4</ele>
        <time>2017-03-28T14:38:56Z</time>
      </trkpt>
      <trkpt lat="47.41296" lon="4.94149">
        <ele>524.1</ele>
        <time>2017-03-28T14:39:04Z</time>
      </trkpt>
      <trkpt lat="47.41304" lon="4.94158">
        <ele>524.2</ele>
        <time>2017-03-28T14:39:12Z</time>
      </trkpt>
      <trkpt lat="47.41312" lon="4.94168">
        <ele>524.2</ele>
        <time>2017-03-28T14:39:20Z</time>
      </trkpt>
      <trkpt lat="47.41321" lon="4.94176">
        <ele>524.2</ele>
        <time>2017-03-28T14:39:28Z</time>
      </trkpt>
      <trkpt lat="47.41328" lon="4.94184">
        <ele>523.8</ele>
        <time>2017-03-28T14:39:35Z</time>
      </trkpt>
      <trkpt lat="47.41335" lon="4.94192">
        <ele>524</ele>
        <time>2017-03-28T14:39:42Z</time>
      </trkpt>
      <trkpt lat="47.41344" lon="4.94201">
        <ele>523.5</ele>
        <time>2017-03-28T14:39:50Z</time>
      </trkpt>
      <trkpt lat="47.41351" lon="4.94208">
        <ele>523.5</ele>
        <time>2017-03-28T14:39:57Z</time>
      </trkpt>
      <trkpt lat="47.41359" lon="4.94215">
        <ele>523.1</ele>
        <time>2017-03-28T14:40:04Z</time>
      </trkpt>
      <trkpt lat="47.41366" lon="4.94224">
        <ele>523.3</ele>
        <time>2017-03-28T14:40:11Z</time>
      </trkpt>
      <trkpt lat="47.41373" lon="4.94233">
        <ele>523</ele>
        <time>2017-03-28T14:40:18Z</time>
      </trkpt>
      <trkpt lat="47.4138" lon="4.94241">
        <ele>522.9</ele>
        <time>2017-03-28T14:40:25Z</time>
      </trkpt>
      <trkpt lat="47.41388" lon="4.94249">
        <ele>522.2</ele>
        <time>2017-03-28T14:40:32Z</time>
      </trkpt>
      <trkpt lat="47.41395" lon="4.94259">
        <ele>522.4</ele>
        <time>2017-03-28T14:40:39Z</time>
      </trkpt>
      <trkpt lat="47.41402" lon="4.94267">
        <ele>522.3</ele>
        <time>2017-03-28T14:40:46Z</time>
      </trkpt>
      <trkpt lat="47.4141" lon="4.94275">
        <ele>522.4</ele>
        <time>2017-03-28T14:40:54Z</time>
      </trkpt>
      <trkpt lat="47.41418" lon="4.94284">
        <ele>522.3</ele>
        <time>2017-03-28T14:41:01Z</time>
      </trkpt>
      <trkpt lat="47.41425" lon="4.94292">
        <ele>522.4</ele>
        <time>2017-03-28T14:41:08Z</time>
      </trkpt>
      <trkpt lat="47.41432" lon="4.943">
        <ele>522.5</ele>
        <time>2017-03-28T14:41:15Z</time>
      </trkpt>
      <trkpt lat="47.41441" lon="4.94308">
        <ele>522.4</ele>
        <time>2017-03-28T14:41:23Z</time>
      </trkpt>
      <trkpt lat="47.41448" lon="4.94319">
        <ele>522.2</ele>
        <time>2017-03-28T14:41:31Z</time>
      </trkpt>
      <trkpt lat="47.41456" lon="4.94327">
        <ele>521.8</ele>
        <time>2017-03-28T14:41:38Z</time>
      </trkpt>
      <trkpt lat="47.41463" lon="4.94335">
        <ele>522.1</ele>
        <time>2017-03-28T14:41:45Z</time>
      </trkpt>
      <trkpt lat="47.4147" lon="4.94343">
        <ele>522</ele>
        <time>2017-03-28T14:41:52Z</time>
      </trkpt>
      <trkpt lat="47.41477" lon="4.94352">
        <ele>522</ele>
        <time>2017-03-28T14:41:59Z</time>
      </trkpt>
      <trkpt lat="47.41485" lon="4.9436">
        <ele>521.7</ele>
        <time>2017-03-28T14:42:06Z</time>
      </trkpt>
      <trkpt lat="47.41492" lon="4.94368">
        <ele>521.6</ele>
        <time>2017-03-28T14:42:13Z</time>
      </trkpt>
      <trkpt lat="47.41499" lon="4.94377">
        <ele>521.3</ele>
        <time>2017-03-28T14:42:20Z</time>
      </trkpt>
      <trkpt lat="47.41506" lon="4.94385">
        <ele>521.2</ele>
        <time>2017-03-28T14:42:27Z</time>
      </trkpt>
      <trkpt lat="47.41513" lon="4.94393">
        <ele>521.1</ele>
        <time>2017-03-28T14:42:34Z</time>
      </trkpt>
      <trkpt lat="47.41522" lon="4.94401">
        <ele>521.4</ele>
        <time>2017-03-28T14:42:42Z</time>
      </trkpt>
      <trkpt lat="47.41529" lon="4.9441">
        <ele>521</ele>
        <time>2017-03-28T14:42:50Z</time>
      </trkpt>
      <trkpt lat="47.41537" lon="4.94419">
        <ele>520.7</ele>
        <time>2017-03-28T14:42:58Z</time>
      </trkpt>
      <trkpt lat="47.41546" lon="4.94428">
        <ele>520.6</ele>
        <time>2017-03-28T14:43:06Z</time>
      </trkpt>
      <trkpt lat="47.41554" lon="4.94436">
        <ele>520.4</ele>
        <time>2017-03-28T14:43:14Z</time>
      </trkpt>
      <trkpt lat="47.41562" lon="4.94445">
        <ele>520.2</ele>
        <time>2017-03-28T14:43:22Z</time>
      </trkpt>
      <trkpt lat="47.4157" lon="4.94453">
        <ele>520.3</ele>
        <time>2017-03-28T14:43:30Z</time>
      </trkpt>
      <trkpt lat="47.41578" lon="4.94461">
        <ele>520</ele>
        <time>2017-03-28T14:43:37Z</time>
      </trkpt>
      <trkpt lat="47.41585" lon="4.94469">
        <ele>520</ele>
        <time>2017-03-28T14:43:44Z</time>
      </trkpt>
      <trkpt lat="47.41592" lon="4.94477">
        <ele>519.9</ele>
        <time>2017-03-28T14:43:51Z</time>
      </trkpt>
      <trkpt lat="47.416" lon="4.94485">
        <ele>520.1</ele>
        <time>2017-03-28T14:43:58Z</time>
      </trkpt>
      <trkpt lat="47.41607" lon="4.94492">
        <ele>519.9</ele>
        <time>2017-03-28T14:44:05Z</time>
      </trkpt>
      <trkpt lat="47.41616" lon="4.945">
        <ele>519.6</ele>
        <time>2017-03-28T14:44:13Z</time>
      </trkpt>
      <trkpt lat="47.41623" lon="4.9451">
        <ele>519.8</ele>
        <time>2017-03-28T14:44:21Z</time>
      </trkpt>
      <trkpt lat="47.41632" lon="4.94518">
        <ele>519.9</ele>
        <time>2017-03-28T14:44:29Z</time>
      </trkpt>
      <trkpt lat="47.4164" lon="4.94527">
        <ele>519.8</ele>
        <time>2017-03-28T14:44:37Z</time>
      </trkpt>
      <trkpt lat="47.41647" lon="4.94535">
        <ele>519.8</ele>
        <time>2017-03-28T14:44:45Z</time>
      </trkpt>
      <trkpt lat="47.41655" lon="4.94543">
        <ele>520.2</ele>
        <time>2017-03-28T14:44:53Z</time>
      </trkpt>
      <trkpt lat="47.41661" lon="4.94553">
        <ele>520.3</ele>
        <time>2017-03-28T14:45:01Z</time>
      </trkpt>
      <trkpt lat="47.41668" lon="4.94562">
        <ele>520.5</ele>
        <time>2017-03-28T14:45:09Z</time>
      </trkpt>
      <trkpt lat="47.41676" lon="4.94571">
        <ele>520.4</ele>
        <time>2017-03-28T14:45:17Z</time>
      </trkpt>
      <trkpt lat="47.41684" lon="4.9458">
        <ele>520.6</ele>
        <time>2017-03-28T14:45:25Z</time>
      </trkpt>
      <trkpt lat="47.41692" lon="4.94587">
        <ele>520.7</ele>
        <time>2017-03-28T14:45:33Z</time>
      </trkpt>
      <trkpt lat="47.41699" lon="4.94595">
        <ele>520.5</ele>
        <time>2017-03-28T14:45:41Z</time>
      </trkpt>
      <trkpt lat="47.41707" lon="4.94604">
        <ele>520.6</ele>
        <time>2017-03-28T14:45:50Z</time>
      </trkpt>
      <trkpt lat="47.41713" lon="4.94613">
        <ele>520.6</ele>
        <time>2017-03-28T14:45:58Z</time>
      </trkpt>
      <trkpt lat="47.4172" lon="4.94624">
        <ele>520.2</ele>
        <time>2017-03-28T14:46:06Z</time>
      </trkpt>
      <trkpt lat="47.41727" lon="4.94633">
        <ele>520.3</ele>
        <time>2017-03-28T14:46:14Z</time>
      </trkpt>
      <trkpt lat="47.41734" lon="4.94643">
        <ele>520.4</ele>
        <time>2017-03-28T14:46:22Z</time>
      </trkpt>
      <trkpt lat="47.41741" lon="4.94653">
        <ele>520.4</ele>
        <time>2017-03-28T14:46:30Z</time>
      </trkpt>
      <trkpt lat="47.41749" lon="4.94663">
        <ele>520.4</ele>
        <time>2017-03-28T14:46:38Z</time>
      </trkpt>
      <trkpt lat="47.41756" lon="4.94672">
        <ele>520.2</ele>
        <time>2017-03-28T14:47:10Z</time>
      </trkpt>
      <trkpt lat="47.41764" lon="4.9468">
        <ele>520.2</ele>
        <time>2017-03-28T14:47:17Z</time>
      </trkpt>
      <trkpt lat="47.41773" lon="4.94687">
        <ele>520.3</ele>
        <time>2017-03-28T14:47:25Z</time>
      </trkpt>
      <trkpt lat="47.41782" lon="4.94694">
        <ele>520.4</ele>
        <time>2017-03-28T14:47:33Z</time>
      </trkpt>
      <trkpt lat="47.4179" lon="4.947">
        <ele>520.1</ele>
        <time>2017-03-28T14:47:40Z</time>
      </trkpt>
      <trkpt lat="47.41799" lon="4.94707">
        <ele>519.8</ele>
        <time>2017-03-28T14:47:47Z</time>
      </trkpt>
      <trkpt lat="47.41807" lon="4.94714">
        <ele>519.4</ele>
        <time>2017-03-28T14:47:54Z</time>
      </trkpt>
      <trkpt lat="47.41815" lon="4.9472">
        <ele>519.3</ele>
        <time>2017-03-28T14:48:01Z</time>
      </trkpt>
      <trkpt lat="47.41823" lon="4.94726">
        <ele>519</ele>
        <time>2017-03-28T14:48:08Z</time>
      </trkpt>
      <trkpt lat="47.41831" lon="4.94735">
        <ele>518.9</ele>
        <time>2017-03-28T14:48:16Z</time>
      </trkpt>
      <trkpt lat="47.41836" lon="4.94746">
        <ele>518.7</ele>
        <time>2017-03-28T14:48:24Z</time>
      </trkpt>
      <trkpt lat="47.41843" lon="4.94755">
        <ele>518.8</ele>
        <time>2017-03-28T14:48:32Z</time>
      </trkpt>
      <trkpt lat="47.41849" lon="4.94767">
        <ele>518.7</ele>
        <time>2017-03-28T14:48:41Z</time>
      </trkpt>
      <trkpt lat="47.41856" lon="4.94777">
        <ele>518.5</ele>
        <time>2017-03-28T14:48:50Z</time>
      </trkpt>
      <trkpt lat="47.41862" lon="4.94788">
        <ele>518.7</ele>
        <time>2017-03-28T14:48:57Z</time>
      </trkpt>
      <trkpt lat="47.41869" lon="4.948">
        <ele>518.7</ele>
        <time>2017-03-28T14:49:04Z</time>
      </trkpt>
      <trkpt lat="47.41875" lon="4.94811">
        <ele>518.8</ele>
        <time>2017-03-28T14:49:11Z</time>
      </trkpt>
      <trkpt lat="47.41882" lon="4.94821">
        <ele>518.4</ele>
        <time>2017-03-28T14:49:18Z</time>
      </trkpt>
      <trkpt lat="47.4189" lon="4.9483">
        <ele>518.2</ele>
        <time>2017-03-28T14:49:26Z</time>
      </trkpt>
      <trkpt lat="47.41896" lon="4.94841">
        <ele>518.3</ele>
        <time>2017-03-28T14:49:33Z</time>
      </trkpt>
      <trkpt lat="47.41903" lon="4.94851">
        <ele>518.3</ele>
        <time>2017-03-28T14:49:40Z</time>
      </trkpt>
      <trkpt lat="47.4191" lon="4.94861">
        <ele>518.1</ele>
        <time>2017-03-28T14:49:47Z</time>
      </trkpt>
      <trkpt lat="47.41917" lon="4.9487">
        <ele>518</ele>
        <time>2017-03-28T14:49:54Z</time>
      </trkpt>
      <trkpt lat="47.41924" lon="4.9488">
        <ele>517.7</ele>
        <time>2017-03-28T14:50:02Z</time>
      </trkpt>
      <trkpt lat="47.41931" lon="4.9489">
        <ele>517.7</ele>
        <time>2017-03-28T14:50:10Z</time>
      </trkpt>
      <trkpt lat="47.41939" lon="4.94898">
        <ele>517.6</ele>
        <time>2017-03-28T14:50:18Z</time>
      </trkpt>
      <trkpt lat="47.41945" lon="4.94907">
        <ele>517.4</ele>
        <time>2017-03-28T14:50:25Z</time>
      </trkpt>
      <trkpt lat="47.41952" lon="4.94917">
        <ele>516.9</ele>
        <time>2017-03-28T14:50:32Z</time>
      </trkpt>
      <trkpt lat="47.41961" lon="4.94924">
        <ele>517.1</ele>
        <time>2017-03-28T14:50:40Z</time>
      </trkpt>
      <trkpt lat="47.41967" lon="4.94933">
        <ele>516.8</ele>
        <time>2017-03-28T14:50:47Z</time>
      </trkpt>
      <trkpt lat="47.41974" lon="4.94942">
        <ele>516.6</ele>
        <time>2017-03-28T14:50:54Z</time>
      </trkpt>
      <trkpt lat="47.41982" lon="4.94951">
        <ele>516.7</ele>
        <time>2017-03-28T14:51:02Z</time>
      </trkpt>
      <trkpt lat="47.4199" lon="4.94959">
        <ele>516.4</ele>
        <time>2017-03-28T14:51:12Z</time>
      </trkpt>
      <trkpt lat="47.41994" lon="4.9497">
        <ele>514.1</ele>
        <time>2017-03-28T14:54:54Z</time>
      </trkpt>
      <trkpt lat="47.41993" lon="4.94983">
        <ele>514.2</ele>
        <time>2017-03-28T14:55:55Z</time>
      </trkpt>
      <trkpt lat="47.41993" lon="4.94998">
        <ele>513.9</ele>
        <time>2017-03-28T14:56:04Z</time>
      </trkpt>
      <trkpt lat="47.41991" lon="4.95011">
        <ele>514.1</ele>
        <time>2017-03-28T14:56:11Z</time>
      </trkpt>
      <trkpt lat="47.4199" lon="4.95025">
        <ele>514</ele>
        <time>2017-03-28T14:56:19Z</time>
      </trkpt>
      <trkpt lat="47.41989" lon="4.95038">
        <ele>513.9</ele>
        <time>2017-03-28T14:56:26Z</time>
      </trkpt>
      <trkpt lat="47.41987" lon="4.95052">
        <ele>514</ele>
        <time>2017-03-28T14:56:34Z</time>
      </trkpt>
      <trkpt lat="47.41985" lon="4.95066">
        <ele>513.8</ele>
        <time>2017-03-28T14:56:41Z</time>
      </trkpt>
      <trkpt lat="47.41983" lon="4.9508">
        <ele>513.5</ele>
        <time>2017-03-28T14:56:48Z</time>
      </trkpt>
      <trkpt lat="47.41982" lon="4.95095">
        <ele>513.3</ele>
        <time>2017-03-28T14:56:56Z</time>
      </trkpt>
      <trkpt lat="47.4198" lon="4.95109">
        <ele>513.2</ele>
        <time>2017-03-28T14:57:04Z</time>
      </trkpt>
      <trkpt lat="47.41981" lon="4.95123">
        <ele>512.8</ele>
        <time>2017-03-28T14:57:11Z</time>
      </trkpt>
      <trkpt lat="47.41981" lon="4.95139">
        <ele>512.5</ele>
        <time>2017-03-28T14:57:19Z</time>
      </trkpt>
      <trkpt lat="47.41979" lon="4.95153">
        <ele>512.2</ele>
        <time>2017-03-28T14:57:25Z</time>
      </trkpt>
      <trkpt lat="47.41978" lon="4.95167">
        <ele>511.9</ele>
        <time>2017-03-28T14:57:32Z</time>
      </trkpt>
      <trkpt lat="47.41977" lon="4.9518">
        <ele>511.7</ele>
        <time>2017-03-28T14:57:39Z</time>
      </trkpt>
      <trkpt lat="47.41976" lon="4.95194">
        <ele>510.9</ele>
        <time>2017-03-28T14:57:47Z</time>
      </trkpt>
      <trkpt lat="47.41976" lon="4.95207">
        <ele>510.6</ele>
        <time>2017-03-28T14:57:54Z</time>
      </trkpt>
      <trkpt lat="47.41974" lon="4.95221">
        <ele>509.7</ele>
        <time>2017-03-28T14:58:03Z</time>
      </trkpt>
      <trkpt lat="47.41974" lon="4.95236">
        <ele>509.1</ele>
        <time>2017-03-28T14:58:13Z</time>
      </trkpt>
      <trkpt lat="47.41973" lon="4.95251">
        <ele>508.8</ele>
        <time>2017-03-28T14:58:21Z</time>
      </trkpt>
      <trkpt lat="47.41971" lon="4.95265">
        <ele>508</ele>
        <time>2017-03-28T14:58:31Z</time>
      </trkpt>
      <trkpt lat="47.41973" lon="4.95279">
        <ele>506.7</ele>
        <time>2017-03-28T14:58:40Z</time>
      </trkpt>
      <trkpt lat="47.41974" lon="4.95294">
        <ele>505.9</ele>
        <time>2017-03-28T14:58:47Z</time>
      </trkpt>
      <trkpt lat="47.41971" lon="4.95309">
        <ele>505</ele>
        <time>2017-03-28T14:58:55Z</time>
      </trkpt>
      <trkpt lat="47.41973" lon="4.95323">
        <ele>504.2</ele>
        <time>2017-03-28T14:59:04Z</time>
      </trkpt>
      <trkpt lat="47.41974" lon="4.95339">
        <ele>503.6</ele>
        <time>2017-03-28T14:59:13Z</time>
      </trkpt>
      <trkpt lat="47.41972" lon="4.95353">
        <ele>502.7</ele>
        <time>2017-03-28T14:59:22Z</time>
      </trkpt>
      <trkpt lat="47.41972" lon="4.95366">
        <ele>502.3</ele>
        <time>2017-03-28T14:59:28Z</time>
      </trkpt>
      <trkpt lat="47.41971" lon="4.95379">
        <ele>501.4</ele>
        <time>2017-03-28T14:59:35Z</time>
      </trkpt>
      <trkpt lat="47.41968" lon="4.95395">
        <ele>500.5</ele>
        <time>2017-03-28T14:59:43Z</time>
      </trkpt>
      <trkpt lat="47.41968" lon="4.9541">
        <ele>499.9</ele>
        <time>2017-03-28T14:59:49Z</time>
      </trkpt>
      <trkpt lat="47.41968" lon="4.95425">
        <ele>499</ele>
        <time>2017-03-28T14:59:55Z</time>
      </trkpt>
      <trkpt lat="47.41967" lon="4.9544">
        <ele>498.3</ele>
        <time>2017-03-28T15:00:01Z</time>
      </trkpt>
      <trkpt lat="47.41965" lon="4.95453">
        <ele>497.4</ele>
        <time>2017-03-28T15:00:08Z</time>
      </trkpt>
      <trkpt lat="47.41956" lon="4.9546">
        <ele>496.6</ele>
        <time>2017-03-28T15:00:19Z</time>
      </trkpt>
      <trkpt lat="47.41946" lon="4.95462">
        <ele>495.8</ele>
        <time>2017-03-28T15:00:29Z</time>
      </trkpt>
      <trkpt lat="47.41936" lon="4.95464">
        <ele>495.7</ele>
        <time>2017-03-28T15:00:38Z</time>
      </trkpt>
      <trkpt lat="47.41927" lon="4.95465">
        <ele>495.2</ele>
        <time>2017-03-28T15:00:46Z</time>
      </trkpt>
      <trkpt lat="47.41917" lon="4.95465">
        <ele>494.7</ele>
        <time>2017-03-28T15:00:53Z</time>
      </trkpt>
      <trkpt lat="47.41909" lon="4.95469">
        <ele>494.3</ele>
        <time>2017-03-28T15:01:02Z</time>
      </trkpt>
      <trkpt lat="47.41899" lon="4.95468">
        <ele>494.3</ele>
        <time>2017-03-28T15:01:09Z</time>
      </trkpt>
      <trkpt lat="47.41889" lon="4.95466">
        <ele>493.9</ele>
        <time>2017-03-28T15:01:16Z</time>
      </trkpt>
      <trkpt lat="47.4188" lon="4.95469">
        <ele>493.8</ele>
        <time>2017-03-28T15:01:24Z</time>
      </trkpt>
      <trkpt lat="47.41871" lon="4.95471">
        <ele>493.1</ele>
        <time>2017-03-28T15:01:32Z</time>
      </trkpt>
      <trkpt lat="47.41861" lon="4.95471">
        <ele>492.7</ele>
        <time>2017-03-28T15:01:39Z</time>
      </trkpt>
      <trkpt lat="47.41852" lon="4.95471">
        <ele>492.2</ele>
        <time>2017-03-28T15:01:46Z</time>
      </trkpt>
      <trkpt lat="47.41842" lon="4.95473">
        <ele>491.4</ele>
        <time>2017-03-28T15:01:54Z</time>
      </trkpt>
      <trkpt lat="47.41833" lon="4.95474">
        <ele>491.1</ele>
        <time>2017-03-28T15:02:02Z</time>
      </trkpt>
      <trkpt lat="47.41824" lon="4.95474">
        <ele>490.5</ele>
        <time>2017-03-28T15:02:09Z</time>
      </trkpt>
      <trkpt lat="47.41814" lon="4.95474">
        <ele>490.1</ele>
        <time>2017-03-28T15:02:16Z</time>
      </trkpt>
      <trkpt lat="47.41805" lon="4.95475">
        <ele>489.2</ele>
        <time>2017-03-28T15:02:24Z</time>
      </trkpt>
      <trkpt lat="47.41796" lon="4.95474">
        <ele>488.7</ele>
        <time>2017-03-28T15:02:32Z</time>
      </trkpt>
      <trkpt lat="47.41787" lon="4.95475">
        <ele>488.6</ele>
        <time>2017-03-28T15:02:39Z</time>
      </trkpt>
      <trkpt lat="47.41776" lon="4.95479">
        <ele>488.2</ele>
        <time>2017-03-28T15:02:49Z</time>
      </trkpt>
      <trkpt lat="47.41767" lon="4.95479">
        <ele>487.9</ele>
        <time>2017-03-28T15:02:55Z</time>
      </trkpt>
      <trkpt lat="47.41758" lon="4.95478">
        <ele>487.8</ele>
        <time>2017-03-28T15:03:02Z</time>
      </trkpt>
      <trkpt lat="47.41748" lon="4.95478">
        <ele>487.6</ele>
        <time>2017-03-28T15:03:09Z</time>
      </trkpt>
      <trkpt lat="47.41739" lon="4.95477">
        <ele>488</ele>
        <time>2017-03-28T15:03:19Z</time>
      </trkpt>
      <trkpt lat="47.41729" lon="4.9548">
        <ele>488.2</ele>
        <time>2017-03-28T15:03:28Z</time>
      </trkpt>
      <trkpt lat="47.4172" lon="4.95483">
        <ele>488.3</ele>
        <time>2017-03-28T15:03:37Z</time>
      </trkpt>
      <trkpt lat="47.4171" lon="4.95482">
        <ele>488.3</ele>
        <time>2017-03-28T15:03:43Z</time>
      </trkpt>
      <trkpt lat="47.417" lon="4.95479">
        <ele>488.1</ele>
        <time>2017-03-28T15:03:48Z</time>
      </trkpt>
      <trkpt lat="47.4169" lon="4.95478">
        <ele>488</ele>
        <time>2017-03-28T15:03:54Z</time>
      </trkpt>
      <trkpt lat="47.41681" lon="4.95479">
        <ele>487.7</ele>
        <time>2017-03-28T15:04:00Z</time>
      </trkpt>
      <trkpt lat="47.41672" lon="4.95479">
        <ele>487.5</ele>
        <time>2017-03-28T15:04:06Z</time>
      </trkpt>
      <trkpt lat="47.41662" lon="4.9548">
        <ele>487.2</ele>
        <time>2017-03-28T15:04:14Z</time>
      </trkpt>
      <trkpt lat="47.41653" lon="4.95482">
        <ele>487</ele>
        <time>2017-03-28T15:04:22Z</time>
      </trkpt>
      <trkpt lat="47.41644" lon="4.95487">
        <ele>487.1</ele>
        <time>2017-03-28T15:04:32Z</time>
      </trkpt>
      <trkpt lat="47.41647" lon="4.95501">
        <ele>486.4</ele>
        <time>2017-03-28T15:04:45Z</time>
      </trkpt>
      <trkpt lat="47.41651" lon="4.95515">
        <ele>486.9</ele>
        <time>2017-03-28T15:04:55Z</time>
      </trkpt>
      <trkpt lat="47.41656" lon="4.95527">
        <ele>486.5</ele>
        <time>2017-03-28T15:05:07Z</time>
      </trkpt>
      <trkpt lat="47.4166" lon="4.95541">
        <ele>486</ele>
        <time>2017-03-28T15:05:17Z</time>
      </trkpt>
      <trkpt lat="47.41664" lon="4.95555">
        <ele>485.6</ele>
        <time>2017-03-28T15:05:25Z</time>
      </trkpt>
      <trkpt lat="47.41668" lon="4.95567">
        <ele>485.6</ele>
        <time>2017-03-28T15:05:33Z</time>
      </trkpt>
      <trkpt lat="47.41672" lon="4.95582">
        <ele>485.1</ele>
        <time>2017-03-28T15:05:41Z</time>
      </trkpt>
      <trkpt lat="47.41674" lon="4.95595">
        <ele>484.8</ele>
        <time>2017-03-28T15:05:47Z</time>
      </trkpt>
      <trkpt lat="47.41676" lon="4.95609">
        <ele>484.8</ele>
        <time>2017-03-28T15:05:53Z</time>
      </trkpt>
      <trkpt lat="47.41677" lon="4.95623">
        <ele>484.7</ele>
        <time>2017-03-28T15:06:00Z</time>
      </trkpt>
      <trkpt lat="47.41677" lon="4.95637">
        <ele>485.3</ele>
        <time>2017-03-28T15:06:49Z</time>
      </trkpt>
      <trkpt lat="47.41674" lon="4.95651">
        <ele>485.2</ele>
        <time>2017-03-28T15:07:49Z</time>
      </trkpt>
      <trkpt lat="47.4167" lon="4.95663">
        <ele>486.4</ele>
        <time>2017-03-28T15:08:03Z</time>
      </trkpt>
      <trkpt lat="47.41665" lon="4.95676">
        <ele>486.6</ele>
        <time>2017-03-28T15:08:11Z</time>
      </trkpt>
      <trkpt lat="47.4166" lon="4.95687">
        <ele>487.4</ele>
        <time>2017-03-28T15:08:19Z</time>
      </trkpt>
      <trkpt lat="47.41654" lon="4.95698">
        <ele>488.2</ele>
        <time>2017-03-28T15:08:28Z</time>
      </trkpt>
      <trkpt lat="47.41648" lon="4.9571">
        <ele>488.4</ele>
        <time>2017-03-28T15:08:45Z</time>
      </trkpt>
      <trkpt lat="47.41644" lon="4.95722">
        <ele>488.7</ele>
        <time>2017-03-28T15:08:54Z</time>
      </trkpt>
      <trkpt lat="47.41639" lon="4.95735">
        <ele>489.2</ele>
        <time>2017-03-28T15:09:03Z</time>
      </trkpt>
      <trkpt lat="47.41634" lon="4.95747">
        <ele>489.6</ele>
        <time>2017-03-28T15:09:12Z</time>
      </trkpt>
      <trkpt lat="47.41628" lon="4.95758">
        <ele>490</ele>
        <time>2017-03-28T15:09:21Z</time>
      </trkpt>
      <trkpt lat="47.41622" lon="4.95768">
        <ele>490.2</ele>
        <time>2017-03-28T15:09:30Z</time>
      </trkpt>
      <trkpt lat="47.41616" lon="4.95779">
        <ele>490.6</ele>
        <time>2017-03-28T15:10:26Z</time>
      </trkpt>
      <trkpt lat="47.41611" lon="4.95791">
        <ele>491.1</ele>
        <time>2017-03-28T15:10:36Z</time>
      </trkpt>
      <trkpt lat="47.41607" lon="4.95804">
        <ele>492</ele>
        <time>2017-03-28T15:10:46Z</time>
      </trkpt>
      <trkpt lat="47.41603" lon="4.95817">
        <ele>493.2</ele>
        <time>2017-03-28T15:10:55Z</time>
      </trkpt>
      <trkpt lat="47.41598" lon="4.95829">
        <ele>494.2</ele>
        <time>2017-03-28T15:11:04Z</time>
      </trkpt>
      <trkpt lat="47.41594" lon="4.95841">
        <ele>495</ele>
        <time>2017-03-28T15:11:59Z</time>
      </trkpt>
      <trkpt lat="47.41588" lon="4.95852">
        <ele>495.7</ele>
        <time>2017-03-28T15:12:07Z</time>
      </trkpt>
      <trkpt lat="47.41582" lon="4.95863">
        <ele>495.7</ele>
        <time>2017-03-28T15:12:16Z</time>
      </trkpt>
      <trkpt lat="47.41578" lon="4.95875">
        <ele>496.5</ele>
        <time>2017-03-28T15:12:25Z</time>
      </trkpt>
      <trkpt lat="47.41576" lon="4.9589">
        <ele>497.1</ele>
        <time>2017-03-28T15:12:34Z</time>
      </trkpt>
      <trkpt lat="47.41573" lon="4.95904">
        <ele>497.5</ele>
        <time>2017-03-28T15:12:43Z</time>
      </trkpt>
      <trkpt lat="47.4157" lon="4.95917">
        <ele>497.3</ele>
        <time>2017-03-28T15:12:53Z</time>
      </trkpt>
      <trkpt lat="47.41571" lon="4.95932">
        <ele>497.2</ele>
        <time>2017-03-28T15:13:03Z</time>
      </trkpt>
      <trkpt lat="47.41571" lon="4.95946">
        <ele>497.2</ele>
        <time>2017-03-28T15:13:11Z</time>
      </trkpt>
      <trkpt lat="47.4157" lon="4.9596">
        <ele>497.3</ele>
        <time>2017-03-28T15:13:20Z</time>
      </trkpt>
      <trkpt lat="47.41568" lon="4.95973">
        <ele>497.1</ele>
        <time>2017-03-28T15:13:31Z</time>
      </trkpt>
      <trkpt lat="47.41568" lon="4.95988">
        <ele>496.8</ele>
        <time>2017-03-28T15:13:42Z</time>
      </trkpt>
      <trkpt lat="47.41568" lon="4.96003">
        <ele>496.7</ele>
        <time>2017-03-28T15:13:52Z</time>
      </trkpt>
      <trkpt lat="47.41568" lon="4.96017">
        <ele>496.9</ele>
        <time>2017-03-28T15:14:02Z</time>
      </trkpt>
      <trkpt lat="47.41568" lon="4.9603">
        <ele>496.6</ele>
        <time>2017-03-28T15:14:10Z</time>
      </trkpt>
      <trkpt lat="47.4157" lon="4.96044">
        <ele>496.4</ele>
        <time>2017-03-28T15:14:18Z</time>
      </trkpt>
      <trkpt lat="47.41571" lon="4.96059">
        <ele>496.6</ele>
        <time>2017-03-28T15:14:25Z</time>
      </trkpt>
      <trkpt lat="47.4157" lon="4.96072">
        <ele>497</ele>
        <time>2017-03-28T15:14:33Z</time>
      </trkpt>
      <trkpt lat="47.41569" lon="4.96086">
        <ele>497</ele>
        <time>2017-03-28T15:14:43Z</time>
      </trkpt>
      <trkpt lat="47.41568" lon="4.96099">
        <ele>497.2</ele>
        <time>2017-03-28T15:15:07Z</time>
      </trkpt>
      <trkpt lat="47.41573" lon="4.96111">
        <ele>497</ele>
        <time>2017-03-28T15:15:55Z</time>
      </trkpt>
      <trkpt lat="47.41582" lon="4.96114">
        <ele>496.3</ele>
        <time>2017-03-28T15:16:03Z</time>
      </trkpt>
      <trkpt lat="47.41592" lon="4.96111">
        <ele>495.6</ele>
        <time>2017-03-28T15:16:12Z</time>
      </trkpt>
      <trkpt lat="47.41601" lon="4.96108">
        <ele>495.8</ele>
        <time>2017-03-28T15:16:21Z</time>
      </trkpt>
      <trkpt lat="47.4161" lon="4.96105">
        <ele>496.9</ele>
        <time>2017-03-28T15:16:31Z</time>
      </trkpt>
      <trkpt lat="47.41619" lon="4.961">
        <ele>496.9</ele>
        <time>2017-03-28T15:16:43Z</time>
      </trkpt>
      <trkpt lat="47.41628" lon="4.96098">
        <ele>497.2</ele>
        <time>2017-03-28T15:16:53Z</time>
      </trkpt>
      <trkpt lat="47.41637" lon="4.96093">
        <ele>497</ele>
        <time>2017-03-28T15:17:02Z</time>
      </trkpt>
      <trkpt lat="47.41646" lon="4.96088">
        <ele>496.9</ele>
        <time>2017-03-28T15:17:12Z</time>
      </trkpt>
      <trkpt lat="47.41655" lon="4.96084">
        <ele>496.9</ele>
        <time>2017-03-28T15:17:21Z</time>
      </trkpt>
      <trkpt lat="47.41664" lon="4.9608">
        <ele>497</ele>
        <time>2017-03-28T15:17:30Z</time>
      </trkpt>
      <trkpt lat="47.41674" lon="4.96079">
        <ele>497</ele>
        <time>2017-03-28T15:17:40Z</time>
      </trkpt>
      <trkpt lat="47.41683" lon="4.96072">
        <ele>496.5</ele>
        <time>2017-03-28T15:17:49Z</time>
      </trkpt>
      <trkpt lat="47.41692" lon="4.96068">
        <ele>496.5</ele>
        <time>2017-03-28T15:17:56Z</time>
      </trkpt>
      <trkpt lat="47.41702" lon="4.96064">
        <ele>495.8</ele>
        <time>2017-03-28T15:18:06Z</time>
      </trkpt>
      <trkpt lat="47.41711" lon="4.96061">
        <ele>495.4</ele>
        <time>2017-03-28T15:18:13Z</time>
      </trkpt>
      <trkpt lat="47.4172" lon="4.96055">
        <ele>495.2</ele>
        <time>2017-03-28T15:18:21Z</time>
      </trkpt>
      <trkpt lat="47.41729" lon="4.96051">
        <ele>494.3</ele>
        <time>2017-03-28T15:18:30Z</time>
      </trkpt>
      <trkpt lat="47.41739" lon="4.96051">
        <ele>493.8</ele>
        <time>2017-03-28T15:18:38Z</time>
      </trkpt>
      <trkpt lat="47.41748" lon="4.96054">
        <ele>493.9</ele>
        <time>2017-03-28T15:18:45Z</time>
      </trkpt>
      <trkpt lat="47.41758" lon="4.96058">
        <ele>493.7</ele>
        <time>2017-03-28T15:18:51Z</time>
      </trkpt>
      <trkpt lat="47.41767" lon="4.96062">
        <ele>493.4</ele>
        <time>2017-03-28T15:18:57Z</time>
      </trkpt>
      <trkpt lat="47.41777" lon="4.96066">
        <ele>493.5</ele>
        <time>2017-03-28T15:19:03Z</time>
      </trkpt>
      <trkpt lat="47.41786" lon="4.96072">
        <ele>493.6</ele>
        <time>2017-03-28T15:19:09Z</time>
      </trkpt>
      <trkpt lat="47.41796" lon="4.96077">
        <ele>494.2</ele>
        <time>2017-03-28T15:19:16Z</time>
      </trkpt>
      <trkpt lat="47.41804" lon="4.96085">
        <ele>494</ele>
        <time>2017-03-28T15:19:24Z</time>
      </trkpt>
      <trkpt lat="47.41812" lon="4.96092">
        <ele>493.7</ele>
        <time>2017-03-28T15:19:32Z</time>
      </trkpt>
      <trkpt lat="47.4182" lon="4.961">
        <ele>493.5</ele>
        <time>2017-03-28T15:19:40Z</time>
      </trkpt>
      <trkpt lat="47.41829" lon="4.96106">
        <ele>493.3</ele>
        <time>2017-03-28T15:19:48Z</time>
      </trkpt>
      <trkpt lat="47.41838" lon="4.96113">
        <ele>493.3</ele>
        <time>2017-03-28T15:19:57Z</time>
      </trkpt>
      <trkpt lat="47.41847" lon="4.96119">
        <ele>492.7</ele>
        <time>2017-03-28T15:20:06Z</time>
      </trkpt>
      <trkpt lat="47.41855" lon="4.96126">
        <ele>492.5</ele>
        <time>2017-03-28T15:20:14Z</time>
      </trkpt>
      <trkpt lat="47.41863" lon="4.96133">
        <ele>491.9</ele>
        <time>2017-03-28T15:20:23Z</time>
      </trkpt>
      <trkpt lat="47.41871" lon="4.9614">
        <ele>491.6</ele>
        <time>2017-03-28T15:20:32Z</time>
      </trkpt>
      <trkpt lat="47.41879" lon="4.96149">
        <ele>491.1</ele>
        <time>2017-03-28T15:20:41Z</time>
      </trkpt>
      <trkpt lat="47.41887" lon="4.96156">
        <ele>490.9</ele>
        <time>2017-03-28T15:20:49Z</time>
      </trkpt>
      <trkpt lat="47.41895" lon="4.96163">
        <ele>490.4</ele>
        <time>2017-03-28T15:20:57Z</time>
      </trkpt>
      <trkpt lat="47.41903" lon="4.9617">
        <ele>489.7</ele>
        <time>2017-03-28T15:21:08Z</time>
      </trkpt>
      <trkpt lat="47.41912" lon="4.96176">
        <ele>489.1</ele>
        <time>2017-03-28T15:21:17Z</time>
      </trkpt>
      <trkpt lat="47.41921" lon="4.96182">
        <ele>488.6</ele>
        <time>2017-03-28T15:21:25Z</time>
      </trkpt>
      <trkpt lat="47.41928" lon="4.9619">
        <ele>488.1</ele>
        <time>2017-03-28T15:21:34Z</time>
      </trkpt>
      <trkpt lat="47.41937" lon="4.96197">
        <ele>487.2</ele>
        <time>2017-03-28T15:21:43Z</time>
      </trkpt>
      <trkpt lat="47.41946" lon="4.96203">
        <ele>486.5</ele>
        <time>2017-03-28T15:21:51Z</time>
      </trkpt>
      <trkpt lat="47.41954" lon="4.9621">
        <ele>486</ele>
        <time>2017-03-28T15:21:59Z</time>
      </trkpt>
      <trkpt lat="47.41963" lon="4.96217">
        <ele>484.6</ele>
        <time>2017-03-28T15:22:09Z</time>
      </trkpt>
      <trkpt lat="47.41971" lon="4.96225">
        <ele>483.9</ele>
        <time>2017-03-28T15:22:18Z</time>
      </trkpt>
      <trkpt lat="47.4198" lon="4.96231">
        <ele>482.5</ele>
        <time>2017-03-28T15:22:28Z</time>
      </trkpt>
      <trkpt lat="47.41989" lon="4.96238">
        <ele>481.8</ele>
        <time>2017-03-28T15:22:36Z</time>
      </trkpt>
      <trkpt lat="47.41997" lon="4.96244">
        <ele>481.3</ele>
        <time>2017-03-28T15:22:43Z</time>
      </trkpt>
      <trkpt lat="47.42006" lon="4.96251">
        <ele>480.8</ele>
        <time>2017-03-28T15:22:51Z</time>
      </trkpt>
      <trkpt lat="47.42014" lon="4.96258">
        <ele>480</ele>
        <time>2017-03-28T15:22:59Z</time>
      </trkpt>
      <trkpt lat="47.42023" lon="4.96265">
        <ele>478.9</ele>
        <time>2017-03-28T15:23:06Z</time>
      </trkpt>
      <trkpt lat="47.42031" lon="4.96271">
        <ele>478.4</ele>
        <time>2017-03-28T15:23:14Z</time>
      </trkpt>
      <trkpt lat="47.4204" lon="4.96277">
        <ele>477.1</ele>
        <time>2017-03-28T15:23:23Z</time>
      </trkpt>
      <trkpt lat="47.42042" lon="4.9629">
        <ele>476</ele>
        <time>2017-03-28T15:23:32Z</time>
      </trkpt>
      <trkpt lat="47.42039" lon="4.96304">
        <ele>475.6</ele>
        <time>2017-03-28T15:23:43Z</time>
      </trkpt>
      <trkpt lat="47.42034" lon="4.96317">
        <ele>475.4</ele>
        <time>2017-03-28T15:23:52Z</time>
      </trkpt>
      <trkpt lat="47.4203" lon="4.96328">
        <ele>475.6</ele>
        <time>2017-03-28T15:24:00Z</time>
      </trkpt>
      <trkpt lat="47.42025" lon="4.96339">
        <ele>475.7</ele>
        <time>2017-03-28T15:24:09Z</time>
      </trkpt>
      <trkpt lat="47.4202" lon="4.96352">
        <ele>475.6</ele>
        <time>2017-03-28T15:24:18Z</time>
      </trkpt>
      <trkpt lat="47.42015" lon="4.96365">
        <ele>475.6</ele>
        <time>2017-03-28T15:24:27Z</time>
      </trkpt>
      <trkpt lat="47.42009" lon="4.96377">
        <ele>475.2</ele>
        <time>2017-03-28T15:24:37Z</time>
      </trkpt>
      <trkpt lat="47.42003" lon="4.96389">
        <ele>474.8</ele>
        <time>2017-03-28T15:24:48Z</time>
      </trkpt>
      <trkpt lat="47.41997" lon="4.96401">
        <ele>474.7</ele>
        <time>2017-03-28T15:24:56Z</time>
      </trkpt>
      <trkpt lat="47.41993" lon="4.96414">
        <ele>474.9</ele>
        <time>2017-03-28T15:25:04Z</time>
      </trkpt>
      <trkpt lat="47.41989" lon="4.96426">
        <ele>475.2</ele>
        <time>2017-03-28T15:25:12Z</time>
      </trkpt>
      <trkpt lat="47.41985" lon="4.96439">
        <ele>475.6</ele>
        <time>2017-03-28T15:25:20Z</time>
      </trkpt>
      <trkpt lat="47.4198" lon="4.96451">
        <ele>475.9</ele>
        <time>2017-03-28T15:25:28Z</time>
      </trkpt>
      <trkpt lat="47.41976" lon="4.96463">
        <ele>475.8</ele>
        <time>2017-03-28T15:25:36Z</time>
      </trkpt>
      <trkpt lat="47.41972" lon="4.96476">
        <ele>476.1</ele>
        <time>2017-03-28T15:25:45Z</time>
      </trkpt>
      <trkpt lat="47.41968" lon="4.96488">
        <ele>476.2</ele>
        <time>2017-03-28T15:25:54Z</time>
      </trkpt>
      <trkpt lat="47.41963" lon="4.965">
        <ele>475.8</ele>
        <time>2017-03-28T15:26:04Z</time>
      </trkpt>
      <trkpt lat="47.41959" lon="4.96511">
        <ele>476.2</ele>
        <time>2017-03-28T15:26:37Z</time>
      </trkpt>
      <trkpt lat="47.41954" lon="4.96522">
        <ele>475.9</ele>
        <time>2017-03-28T15:26:48Z</time>
      </trkpt>
      <trkpt lat="47.41949" lon="4.96535">
        <ele>475.9</ele>
        <time>2017-03-28T15:26:56Z</time>
      </trkpt>
      <trkpt lat="47.41944" lon="4.96548">
        <ele>475.9</ele>
        <time>2017-03-28T15:27:07Z</time>
      </trkpt>
      <trkpt lat="47.41939" lon="4.9656">
        <ele>475.9</ele>
        <time>2017-03-28T15:27:15Z</time>
      </trkpt>
      <trkpt lat="47.41933" lon="4.96571">
        <ele>475.8</ele>
        <time>2017-03-28T15:27:23Z</time>
      </trkpt>
      <trkpt lat="47.41929" lon="4.96584">
        <ele>476.1</ele>
        <time>2017-03-28T15:27:31Z</time>
      </trkpt>
      <trkpt lat="47.41924" lon="4.96597">
        <ele>476.1</ele>
        <time>2017-03-28T15:27:39Z</time>
      </trkpt>
      <trkpt lat="47.41918" lon="4.96608">
        <ele>476.2</ele>
        <time>2017-03-28T15:27:47Z</time>
      </trkpt>
      <trkpt lat="47.41912" lon="4.9662">
        <ele>476.4</ele>
        <time>2017-03-28T15:27:56Z</time>
      </trkpt>
      <trkpt lat="47.41908" lon="4.96634">
        <ele>476.2</ele>
        <time>2017-03-28T15:28:04Z</time>
      </trkpt>
      <trkpt lat="47.41903" lon="4.96646">
        <ele>476.1</ele>
        <time>2017-03-28T15:28:11Z</time>
      </trkpt>
      <trkpt lat="47.41899" lon="4.96659">
        <ele>476.1</ele>
        <time>2017-03-28T15:28:19Z</time>
      </trkpt>
      <trkpt lat="47.41895" lon="4.96671">
        <ele>475.8</ele>
        <time>2017-03-28T15:28:29Z</time>
      </trkpt>
      <trkpt lat="47.41889" lon="4.96684">
        <ele>475.9</ele>
        <time>2017-03-28T15:28:38Z</time>
      </trkpt>
      <trkpt lat="47.41885" lon="4.96696">
        <ele>476.2</ele>
        <time>2017-03-28T15:28:46Z</time>
      </trkpt>
      <trkpt lat="47.4188" lon="4.96709">
        <ele>476.2</ele>
        <time>2017-03-28T15:28:54Z</time>
      </trkpt>
      <trkpt lat="47.41876" lon="4.96721">
        <ele>476.8</ele>
        <time>2017-03-28T15:29:02Z</time>
      </trkpt>
      <trkpt lat="47.41872" lon="4.96733">
        <ele>476.8</ele>
        <time>2017-03-28T15:29:09Z</time>
      </trkpt>
      <trkpt lat="47.41866" lon="4.96745">
        <ele>476.7</ele>
        <time>2017-03-28T15:29:16Z</time>
      </trkpt>
      <trkpt lat="47.4186" lon="4.96756">
        <ele>476.7</ele>
        <time>2017-03-28T15:29:23Z</time>
      </trkpt>
      <trkpt lat="47.41851" lon="4.9676">
        <ele>476.8</ele>
        <time>2017-03-28T15:30:28Z</time>
      </trkpt>
      <trkpt lat="47.41842" lon="4.96764">
        <ele>477.5</ele>
        <time>2017-03-28T15:30:37Z</time>
      </trkpt>
      <trkpt lat="47.41833" lon="4.96765">
        <ele>478.2</ele>
        <time>2017-03-28T15:30:47Z</time>
      </trkpt>
      <trkpt lat="47.41823" lon="4.96764">
        <ele>478.6</ele>
        <time>2017-03-28T15:30:56Z</time>
      </trkpt>
      <trkpt lat="47.41813" lon="4.96767">
        <ele>479.3</ele>
        <time>2017-03-28T15:31:06Z</time>
      </trkpt>
      <trkpt lat="47.41804" lon="4.96768">
        <ele>479.6</ele>
        <time>2017-03-28T15:31:15Z</time>
      </trkpt>
      <trkpt lat="47.41795" lon="4.9677">
        <ele>479.9</ele>
        <time>2017-03-28T15:31:24Z</time>
      </trkpt>
      <trkpt lat="47.41785" lon="4.96771">
        <ele>480.1</ele>
        <time>2017-03-28T15:31:32Z</time>
      </trkpt>
      <trkpt lat="47.41776" lon="4.96771">
        <ele>480.5</ele>
        <time>2017-03-28T15:31:40Z</time>
      </trkpt>
      <trkpt lat="47.41766" lon="4.96771">
        <ele>480.7</ele>
        <time>2017-03-28T15:31:48Z</time>
      </trkpt>
      <trkpt lat="47.41756" lon="4.96773">
        <ele>480.6</ele>
        <time>2017-03-28T15:31:56Z</time>
      </trkpt>
      <trkpt lat="47.41747" lon="4.96778">
        <ele>480.8</ele>
        <time>2017-03-28T15:32:05Z</time>
      </trkpt>
      <trkpt lat="47.41738" lon="4.9678">
        <ele>480.5</ele>
        <time>2017-03-28T15:32:14Z</time>
      </trkpt>
      <trkpt lat="47.41728" lon="4.96783">
        <ele>480</ele>
        <time>2017-03-28T15:32:23Z</time>
      </trkpt>
      <trkpt lat="47.41719" lon="4.96787">
        <ele>479.9</ele>
        <time>2017-03-28T15:32:31Z</time>
      </trkpt>
      <trkpt lat="47.41709" lon="4.9679">
        <ele>479.6</ele>
        <time>2017-03-28T15:32:39Z</time>
      </trkpt>
      <trkpt lat="47.41699" lon="4.96793">
        <ele>479.2</ele>
        <time>2017-03-28T15:32:47Z</time>
      </trkpt>
      <trkpt lat="47.41689" lon="4.96797">
        <ele>479</ele>
        <time>2017-03-28T15:32:55Z</time>
      </trkpt>
      <trkpt lat="47.41681" lon="4.96803">
        <ele>479.2</ele>
        <time>2017-03-28T15:33:03Z</time>
      </trkpt>
      <trkpt lat="47.41673" lon="4.96811">
        <ele>478.6</ele>
        <time>2017-03-28T15:33:11Z</time>
      </trkpt>
      <trkpt lat="47.41667" lon="4.96823">
        <ele>477.8</ele>
        <time>2017-03-28T15:33:20Z</time>
      </trkpt>
      <trkpt lat="47.41661" lon="4.96833">
        <ele>477</ele>
        <time>2017-03-28T15:33:27Z</time>
      </trkpt>
      <trkpt lat="47.41653" lon="4.96842">
        <ele>476.8</ele>
        <time>2017-03-28T15:33:35Z</time>
      </trkpt>
      <trkpt lat="47.41646" lon="4.96852">
        <ele>477</ele>
        <time>2017-03-28T15:33:44Z</time>
      </trkpt>
      <trkpt lat="47.41639" lon="4.96862">
        <ele>476.6</ele>
        <time>2017-03-28T15:33:52Z</time>
      </trkpt>
      <trkpt lat="47.41632" lon="4.96873">
        <ele>476.2</ele>
        <time>2017-03-28T15:33:59Z</time>
      </trkpt>
      <trkpt lat="47.41625" lon="4.96882">
        <ele>475.8</ele>
        <time>2017-03-28T15:34:06Z</time>
      </trkpt>
      <trkpt lat="47.41618" lon="4.96893">
        <ele>475.7</ele>
        <time>2017-03-28T15:34:14Z</time>
      </trkpt>
      <trkpt lat="47.41612" lon="4.96904">
        <ele>475.4</ele>
        <time>2017-03-28T15:34:21Z</time>
      </trkpt>
      <trkpt lat="47.4161" lon="4.96917">
        <ele>475.1</ele>
        <time>2017-03-28T15:34:28Z</time>
      </trkpt>
      <trkpt lat="47.41609" lon="4.96931">
        <ele>474</ele>
        <time>2017-03-28T15:34:38Z</time>
      </trkpt>
      <trkpt lat="47.41608" lon="4.96945">
        <ele>473.2</ele>
        <time>2017-03-28T15:34:46Z</time>
      </trkpt>
      <trkpt lat="47.41605" lon="4.96958">
        <ele>472.1</ele>
        <time>2017-03-28T15:34:53Z</time>
      </trkpt>
      <trkpt lat="47.41601" lon="4.96971">
        <ele>471.1</ele>
        <time>2017-03-28T15:35:02Z</time>
      </trkpt>
      <trkpt lat="47.41599" lon="4.96985">
        <ele>470.7</ele>
        <time>2017-03-28T15:35:09Z</time>
      </trkpt>
      <trkpt lat="47.41597" lon="4.96998">
        <ele>469.9</ele>
        <time>2017-03-28T15:35:17Z</time>
      </trkpt>
      <trkpt lat="47.41596" lon="4.97012">
        <ele>469.3</ele>
        <time>2017-03-28T15:35:24Z</time>
      </trkpt>
      <trkpt lat="47.41593" lon="4.97026">
        <ele>469.4</ele>
        <time>2017-03-28T15:35:31Z</time>
      </trkpt>
      <trkpt lat="47.41591" lon="4.97039">
        <ele>469.6</ele>
        <time>2017-03-28T15:35:38Z</time>
      </trkpt>
      <trkpt lat="47.4159" lon="4.97053">
        <ele>469.3</ele>
        <time>2017-03-28T15:35:48Z</time>
      </trkpt>
      <trkpt lat="47.41589" lon="4.97068">
        <ele>468.6</ele>
        <time>2017-03-28T15:35:57Z</time>
      </trkpt>
      <trkpt lat="47.41587" lon="4.97081">
        <ele>468.4</ele>
        <time>2017-03-28T15:36:09Z</time>
      </trkpt>
      <trkpt lat="47.41591" lon="4.97093">
        <ele>467.9</ele>
        <time>2017-03-28T15:36:50Z</time>
      </trkpt>
      <trkpt lat="47.41596" lon="4.97106">
        <ele>466.7</ele>
        <time>2017-03-28T15:36:58Z</time>
      </trkpt>
      <trkpt lat="47.416" lon="4.97119">
        <ele>465.7</ele>
        <time>2017-03-28T15:37:05Z</time>
      </trkpt>
      <trkpt lat="47.41605" lon="4.97131">
        <ele>465.2</ele>
        <time>2017-03-28T15:37:13Z</time>
      </trkpt>
      <trkpt lat="47.41611" lon="4.9714">
        <ele>465.2</ele>
        <time>2017-03-28T15:37:20Z</time>
      </trkpt>
      <trkpt lat="47.41617" lon="4.97151">
        <ele>465.5</ele>
        <time>2017-03-28T15:37:30Z</time>
      </trkpt>
      <trkpt lat="47.41625" lon="4.97159">
        <ele>465.4</ele>
        <time>2017-03-28T15:37:40Z</time>
      </trkpt>
      <trkpt lat="47.41631" lon="4.9717">
        <ele>464.2</ele>
        <time>2017-03-28T15:37:53Z</time>
      </trkpt>
      <trkpt lat="47.41632" lon="4.97184">
        <ele>463.4</ele>
        <time>2017-03-28T15:38:01Z</time>
      </trkpt>
      <trkpt lat="47.4163" lon="4.97197">
        <ele>462.7</ele>
        <time>2017-03-28T15:38:08Z</time>
      </trkpt>
      <trkpt lat="47.41628" lon="4.9721">
        <ele>462.7</ele>
        <time>2017-03-28T15:38:15Z</time>
      </trkpt>
      <trkpt lat="47.41625" lon="4.97225">
        <ele>462.4</ele>
        <time>2017-03-28T15:38:23Z</time>
      </trkpt>
      <trkpt lat="47.41622" lon="4.97238">
        <ele>461.9</ele>
        <time>2017-03-28T15:38:30Z</time>
      </trkpt>
      <trkpt lat="47.41619" lon="4.97252">
        <ele>460.9</ele>
        <time>2017-03-28T15:38:40Z</time>
      </trkpt>
      <trkpt lat="47.41614" lon="4.97264">
        <ele>459.7</ele>
        <time>2017-03-28T15:38:47Z</time>
      </trkpt>
      <trkpt lat="47.41612" lon="4.97278">
        <ele>458.2</ele>
        <time>2017-03-28T15:38:54Z</time>
      </trkpt>
      <trkpt lat="47.4161" lon="4.97292">
        <ele>457</ele>
        <time>2017-03-28T15:39:02Z</time>
      </trkpt>
      <trkpt lat="47.41606" lon="4.97304">
        <ele>456.2</ele>
        <time>2017-03-28T15:39:11Z</time>
      </trkpt>
      <trkpt lat="47.41601" lon="4.97316">
        <ele>454.4</ele>
        <time>2017-03-28T15:39:40Z</time>
      </trkpt>
      <trkpt lat="47.41594" lon="4.97324">
        <ele>453.5</ele>
        <time>2017-03-28T15:39:56Z</time>
      </trkpt>
      <trkpt lat="47.41587" lon="4.97315">
        <ele>454.8</ele>
        <time>2017-03-28T15:40:19Z</time>
      </trkpt>
      <trkpt lat="47.41578" lon="4.9731">
        <ele>454.5</ele>
        <time>2017-03-28T15:40:35Z</time>
      </trkpt>
      <trkpt lat="47.41569" lon="4.97304">
        <ele>453.4</ele>
        <time>2017-03-28T15:40:50Z</time>
      </trkpt>
      <trkpt lat="47.41561" lon="4.97297">
        <ele>452.7</ele>
        <time>2017-03-28T15:40:58Z</time>
      </trkpt>
      <trkpt lat="47.41553" lon="4.97289">
        <ele>452.1</ele>
        <time>2017-03-28T15:41:07Z</time>
      </trkpt>
      <trkpt lat="47.41544" lon="4.97282">
        <ele>451.9</ele>
        <time>2017-03-28T15:41:17Z</time>
      </trkpt>
      <trkpt lat="47.41536" lon="4.97277">
        <ele>451.6</ele>
        <time>2017-03-28T15:41:26Z</time>
      </trkpt>
      <trkpt lat="47.41528" lon="4.9727">
        <ele>451.5</ele>
        <time>2017-03-28T15:41:35Z</time>
      </trkpt>
      <trkpt lat="47.41519" lon="4.97263">
        <ele>451.6</ele>
        <time>2017-03-28T15:41:49Z</time>
      </trkpt>
      <trkpt lat="47.41512" lon="4.97255">
        <ele>451.1</ele>
        <time>2017-03-28T15:42:10Z</time>
      </trkpt>
      <trkpt lat="47.41503" lon="4.97249">
        <ele>450.8</ele>
        <time>2017-03-28T15:42:40Z</time>
      </trkpt>
      <trkpt lat="47.41494" lon="4.97244">
        <ele>451.1</ele>
        <time>2017-03-28T15:42:48Z</time>
      </trkpt>
      <trkpt lat="47.41486" lon="4.97237">
        <ele>451.2</ele>
        <time>2017-03-28T15:42:56Z</time>
      </trkpt>
      <trkpt lat="47.41477" lon="4.9723">
        <ele>451.3</ele>
        <time>2017-03-28T15:43:06Z</time>
      </trkpt>
      <trkpt lat="47.41469" lon="4.97223">
        <ele>451.4</ele>
        <time>2017-03-28T15:43:14Z</time>
      </trkpt>
      <trkpt lat="47.41462" lon="4.97214">
        <ele>452.1</ele>
        <time>2017-03-28T15:43:22Z</time>
      </trkpt>
      <trkpt lat="47.41454" lon="4.97207">
        <ele>453.2</ele>
        <time>2017-03-28T15:43:33Z</time>
      </trkpt>
      <trkpt lat="47.41448" lon="4.97197">
        <ele>454.8</ele>
        <time>2017-03-28T15:44:14Z</time>
      </trkpt>
      <trkpt lat="47.41439" lon="4.9719">
        <ele>455.3</ele>
        <time>2017-03-28T15:44:51Z</time>
      </trkpt>
      <trkpt lat="47.41431" lon="4.97183">
        <ele>456.3</ele>
        <time>2017-03-28T15:44:59Z</time>
      </trkpt>
      <trkpt lat="47.41424" lon="4.97175">
        <ele>457.2</ele>
        <time>2017-03-28T15:45:11Z</time>
      </trkpt>
      <trkpt lat="47.41415" lon="4.97169">
        <ele>458</ele>
        <time>2017-03-28T15:45:23Z</time>
      </trkpt>
      <trkpt lat="47.41408" lon="4.9716">
        <ele>458.1</ele>
        <time>2017-03-28T15:46:38Z</time>
      </trkpt>
      <trkpt lat="47.414" lon="4.97153">
        <ele>459.2</ele>
        <time>2017-03-28T15:46:59Z</time>
      </trkpt>
      <trkpt lat="47.41392" lon="4.97146">
        <ele>459.6</ele>
        <time>2017-03-28T15:47:09Z</time>
      </trkpt>
      <trkpt lat="47.41383" lon="4.9714">
        <ele>460.3</ele>
        <time>2017-03-28T15:47:19Z</time>
      </trkpt>
      <trkpt lat="47.41374" lon="4.97134">
        <ele>460.7</ele>
        <time>2017-03-28T15:47:29Z</time>
      </trkpt>
      <trkpt lat="47.41366" lon="4.97128">
        <ele>461.2</ele>
        <time>2017-03-28T15:47:37Z</time>
      </trkpt>
      <trkpt lat="47.41358" lon="4.97121">
        <ele>461.9</ele>
        <time>2017-03-28T15:47:49Z</time>
      </trkpt>
      <trkpt lat="47.41349" lon="4.97114">
        <ele>462.3</ele>
        <time>2017-03-28T15:47:59Z</time>
      </trkpt>
      <trkpt lat="47.41343" lon="4.97105">
        <ele>462.4</ele>
        <time>2017-03-28T15:48:11Z</time>
      </trkpt>
      <trkpt lat="47.41335" lon="4.97097">
        <ele>462.6</ele>
        <time>2017-03-28T15:48:18Z</time>
      </trkpt>
      <trkpt lat="47.41327" lon="4.97092">
        <ele>463</ele>
        <time>2017-03-28T15:48:25Z</time>
      </trkpt>
      <trkpt lat="47.41318" lon="4.97085">
        <ele>463</ele>
        <time>2017-03-28T15:48:36Z</time>
      </trkpt>
      <trkpt lat="47.4131" lon="4.9709">
        <ele>458.9</ele>
        <time>2017-03-28T15:49:30Z</time>
      </trkpt>
      <trkpt lat="47.41308" lon="4.97103">
        <ele>454.5</ele>
        <time>2017-03-28T15:50:07Z</time>
      </trkpt>
      <trkpt lat="47.41312" lon="4.97116">
        <ele>451.3</ele>
        <time>2017-03-28T15:50:29Z</time>
      </trkpt>
      <trkpt lat="47.41313" lon="4.9713">
        <ele>446.4</ele>
        <time>2017-03-28T15:51:15Z</time>
      </trkpt>
      <trkpt lat="47.41313" lon="4.97143">
        <ele>441.8</ele>
        <time>2017-03-28T15:51:43Z</time>
      </trkpt>
      <trkpt lat="47.41312" lon="4.97157">
        <ele>438.6</ele>
        <time>2017-03-28T15:52:03Z</time>
      </trkpt>
      <trkpt lat="47.41321" lon="4.97161">
        <ele>435.9</ele>
        <time>2017-03-28T15:52:24Z</time>
      </trkpt>
      <trkpt lat="47.41326" lon="4.97174">
        <ele>430.6</ele>
        <time>2017-03-28T15:52:48Z</time>
      </trkpt>
      <trkpt lat="47.41328" lon="4.97187">
        <ele>425.4</ele>
        <time>2017-03-28T15:53:35Z</time>
      </trkpt>
      <trkpt lat="47.41328" lon="4.97201">
        <ele>419.7</ele>
        <time>2017-03-28T15:54:29Z</time>
      </trkpt>
      <trkpt lat="47.4133" lon="4.97214">
        <ele>416.2</ele>
        <time>2017-03-28T15:54:48Z</time>
      </trkpt>
      <trkpt lat="47.41336" lon="4.97224">
        <ele>413.9</ele>
        <time>2017-03-28T15:55:01Z</time>
      </trkpt>
      <trkpt lat="47.41344" lon="4.97228">
        <ele>408.5</ele>
        <time>2017-03-28T15:55:29Z</time>
      </trkpt>
      <trkpt lat="47.41349" lon="4.97241">
        <ele>401.1</ele>
        <time>2017-03-28T15:56:22Z</time>
      </trkpt>
      <trkpt lat="47.41352" lon="4.97254">
        <ele>398.9</ele>
        <time>2017-03-28T15:56:32Z</time>
      </trkpt>
      <trkpt lat="47.41359" lon="4.97264">
        <ele>396.7</ele>
        <time>2017-03-28T15:56:42Z</time>
      </trkpt>
      <trkpt lat="47.41367" lon="4.97272">
        <ele>391.3</ele>
        <time>2017-03-28T15:57:07Z</time>
      </trkpt>
      <trkpt lat="47.41371" lon="4.97285">
        <ele>388.5</ele>
        <time>2017-03-28T15:57:16Z</time>
      </trkpt>
      <trkpt lat="47.41375" lon="4.97299">
        <ele>386.2</ele>
        <time>2017-03-28T15:57:24Z</time>
      </trkpt>
      <trkpt lat="47.4138" lon="4.9731">
        <ele>383.8</ele>
        <time>2017-03-28T15:57:33Z</time>
      </trkpt>
      <trkpt lat="47.41386" lon="4.97322">
        <ele>378.9</ele>
        <time>2017-03-28T15:58:00Z</time>
      </trkpt>
      <trkpt lat="47.41392" lon="4.97332">
        <ele>375.2</ele>
        <time>2017-03-28T15:58:18Z</time>
      </trkpt>
      <trkpt lat="47.41396" lon="4.97346">
        <ele>372.7</ele>
        <time>2017-03-28T15:58:30Z</time>
      </trkpt>
      <trkpt lat="47.41402" lon="4.97356">
        <ele>370.1</ele>
        <time>2017-03-28T15:58:41Z</time>
      </trkpt>
      <trkpt lat="47.41404" lon="4.97369">
        <ele>366.9</ele>
        <time>2017-03-28T15:59:11Z</time>
      </trkpt>
      <trkpt lat="47.41411" lon="4.97378">
        <ele>365.3</ele>
        <time>2017-03-28T15:59:19Z</time>
      </trkpt>
      <trkpt lat="47.41415" lon="4.9739">
        <ele>363.1</ele>
        <time>2017-03-28T15:59:30Z</time>
      </trkpt>
      <trkpt lat="47.41422" lon="4.97402">
        <ele>361.3</ele>
        <time>2017-03-28T15:59:38Z</time>
      </trkpt>
      <trkpt lat="47.41427" lon="4.97413">
        <ele>359</ele>
        <time>2017-03-28T15:59:48Z</time>
      </trkpt>
      <trkpt lat="47.41433" lon="4.97424">
        <ele>356.4</ele>
        <time>2017-03-28T16:00:00Z</time>
      </trkpt>
      <trkpt lat="47.41435" lon="4.97438">
        <ele>354.2</ele>
        <time>2017-03-28T16:00:10Z</time>
      </trkpt>
      <trkpt lat="47.41438" lon="4.97451">
        <ele>352.2</ele>
        <time>2017-03-28T16:00:19Z</time>
      </trkpt>
      <trkpt lat="47.41441" lon="4.97464">
        <ele>350.5</ele>
        <time>2017-03-28T16:00:27Z</time>
      </trkpt>
      <trkpt lat="47.41445" lon="4.97478">
        <ele>348.4</ele>
        <time>2017-03-28T16:00:36Z</time>
      </trkpt>
      <trkpt lat="47.41449" lon="4.9749">
        <ele>346.4</ele>
        <time>2017-03-28T16:00:45Z</time>
      </trkpt>
      <trkpt lat="47.41453" lon="4.97504">
        <ele>345</ele>
        <time>2017-03-28T16:00:53Z</time>
      </trkpt>
      <trkpt lat="47.41456" lon="4.97517">
        <ele>342.4</ele>
        <time>2017-03-28T16:01:05Z</time>
      </trkpt>
      <trkpt lat="47.41461" lon="4.97529">
        <ele>340.7</ele>
        <time>2017-03-28T16:01:14Z</time>
      </trkpt>
      <trkpt lat="47.41466" lon="4.97542">
        <ele>339.3</ele>
        <time>2017-03-28T16:01:21Z</time>
      </trkpt>
      <trkpt lat="47.41471" lon="4.97554">
        <ele>337.6</ele>
        <time>2017-03-28T16:01:29Z</time>
      </trkpt>
      <trkpt lat="47.41473" lon="4.97567">
        <ele>335.4</ele>
        <time>2017-03-28T16:01:40Z</time>
      </trkpt>
      <trkpt lat="47.41479" lon="4.97577">
        <ele>333.3</ele>
        <time>2017-03-28T16:01:51Z</time>
      </trkpt>
      <trkpt lat="47.41487" lon="4.97585">
        <ele>331.9</ele>
        <time>2017-03-28T16:02:04Z</time>
      </trkpt>
      <trkpt lat="47.41495" lon="4.97593">
        <ele>330.3</ele>
        <time>2017-03-28T16:02:15Z</time>
      </trkpt>
      <trkpt lat="47.41496" lon="4.97607">
        <ele>329.1</ele>
        <time>2017-03-28T16:02:29Z</time>
      </trkpt>
      <trkpt lat="47.41497" lon="4.97621">
        <ele>326.9</ele>
        <time>2017-03-28T16:04:12Z</time>
      </trkpt>
      <trkpt lat="47.41501" lon="4.97633">
        <ele>325.5</ele>
        <time>2017-03-28T16:04:22Z</time>
      </trkpt>
      <trkpt lat="47.41506" lon="4.97645">
        <ele>324.2</ele>
        <time>2017-03-28T16:04:30Z</time>
      </trkpt>
      <trkpt lat="47.41509" lon="4.97659">
        <ele>322.9</ele>
        <time>2017-03-28T16:04:39Z</time>
      </trkpt>
      <trkpt lat="47.41515" lon="4.9767">
        <ele>321.3</ele>
        <time>2017-03-28T16:04:49Z</time>
      </trkpt>
      <trkpt lat="47.41521" lon="4.97682">
        <ele>320.3</ele>
        <time>2017-03-28T16:04:59Z</time>
      </trkpt>
      <trkpt lat="47.41528" lon="4.97692">
        <ele>319.8</ele>
        <time>2017-03-28T16:05:09Z</time>
      </trkpt>
      <trkpt lat="47.41533" lon="4.97703">
        <ele>318.7</ele>
        <time>2017-03-28T16:05:20Z</time>
      </trkpt>
      <trkpt lat="47.41538" lon="4.97715">
        <ele>318.4</ele>
        <time>2017-03-28T16:05:29Z</time>
      </trkpt>
      <trkpt lat="47.41543" lon="4.97727">
        <ele>318.1</ele>
        <time>2017-03-28T16:05:39Z</time>
      </trkpt>
      <trkpt lat="47.41549" lon="4.97737">
        <ele>317.9</ele>
        <time>2017-03-28T16:05:48Z</time>
      </trkpt>
      <trkpt lat="47.41555" lon="4.97748">
        <ele>317.2</ele>
        <time>2017-03-28T16:06:04Z</time>
      </trkpt>
      <trkpt lat="47.41562" lon="4.97755">
        <ele>319.6</ele>
        <time>2017-03-28T16:08:36Z</time>
      </trkpt>
      <trkpt lat="47.41564" lon="4.97769">
        <ele>319.2</ele>
        <time>2017-03-28T16:08:48Z</time>
      </trkpt>
      <trkpt lat="47.4157" lon="4.9778">
        <ele>317.9</ele>
        <time>2017-03-28T16:09:00Z</time>
      </trkpt>
      <trkpt lat="47.41577" lon="4.9779">
        <ele>316.9</ele>
        <time>2017-03-28T16:09:13Z</time>
      </trkpt>
      <trkpt lat="47.41582" lon="4.97802">
        <ele>315.4</ele>
        <time>2017-03-28T16:09:35Z</time>
      </trkpt>
      <trkpt lat="47.4159" lon="4.9781">
        <ele>314.7</ele>
        <time>2017-03-28T16:09:46Z</time>
      </trkpt>
      <trkpt lat="47.41597" lon="4.97819">
        <ele>313.8</ele>
        <time>2017-03-28T16:09:55Z</time>
      </trkpt>
      <trkpt lat="47.41603" lon="4.97831">
        <ele>312.6</ele>
        <time>2017-03-28T16:10:06Z</time>
      </trkpt>
      <trkpt lat="47.41608" lon="4.97842">
        <ele>311.6</ele>
        <time>2017-03-28T16:10:17Z</time>
      </trkpt>
      <trkpt lat="47.41612" lon="4.97854">
        <ele>310.8</ele>
        <time>2017-03-28T16:10:29Z</time>
      </trkpt>
      <trkpt lat="47.41619" lon="4.97863">
        <ele>310.6</ele>
        <time>2017-03-28T16:10:40Z</time>
      </trkpt>
      <trkpt lat="47.41627" lon="4.97872">
        <ele>309.8</ele>
        <time>2017-03-28T16:10:50Z</time>
      </trkpt>
      <trkpt lat="47.41634" lon="4.97883">
        <ele>309.2</ele>
        <time>2017-03-28T16:10:58Z</time>
      </trkpt>
      <trkpt lat="47.41637" lon="4.97896">
        <ele>308.3</ele>
        <time>2017-03-28T16:11:09Z</time>
      </trkpt>
      <trkpt lat="47.41637" lon="4.9791">
        <ele>308</ele>
        <time>2017-03-28T16:11:18Z</time>
      </trkpt>
      <trkpt lat="47.41634" lon="4.97923">
        <ele>308</ele>
        <time>2017-03-28T16:11:27Z</time>
      </trkpt>
      <trkpt lat="47.4163" lon="4.97936">
        <ele>308</ele>
        <time>2017-03-28T16:11:37Z</time>
      </trkpt>
      <trkpt lat="47.41627" lon="4.9795">
        <ele>307.7</ele>
        <time>2017-03-28T16:11:44Z</time>
      </trkpt>
      <trkpt lat="47.41626" lon="4.97963">
        <ele>307.4</ele>
        <time>2017-03-28T16:11:52Z</time>
      </trkpt>
      <trkpt lat="47.41624" lon="4.97976">
        <ele>307</ele>
        <time>2017-03-28T16:12:02Z</time>
      </trkpt>
      <trkpt lat="47.41616" lon="4.97985">
        <ele>306.5</ele>
        <time>2017-03-28T16:12:13Z</time>
      </trkpt>
      <trkpt lat="47.41609" lon="4.97993">
        <ele>305.7</ele>
        <time>2017-03-28T16:12:24Z</time>
      </trkpt>
      <trkpt lat="47.41602" lon="4.98003">
        <ele>306</ele>
        <time>2017-03-28T16:12:31Z</time>
      </trkpt>
      <trkpt lat="47.41596" lon="4.98016">
        <ele>306</ele>
        <time>2017-03-28T16:12:38Z</time>
      </trkpt>
      <trkpt lat="47.41591" lon="4.98029">
        <ele>305.6</ele>
        <time>2017-03-28T16:12:45Z</time>
      </trkpt>
      <trkpt lat="47.41585" lon="4.98039">
        <ele>305.4</ele>
        <time>2017-03-28T16:12:53Z</time>
      </trkpt>
      <trkpt lat="47.41577" lon="4.98046">
        <ele>305.1</ele>
        <time>2017-03-28T16:13:02Z</time>
      </trkpt>
      <trkpt lat="47.41569" lon="4.98053">
        <ele>305.1</ele>
        <time>2017-03-28T16:13:12Z</time>
      </trkpt>
      <trkpt lat="47.41561" lon="4.98062">
        <ele>305.1</ele>
        <time>2017-03-28T16:13:21Z</time>
      </trkpt>
      <trkpt lat="47.41553" lon="4.98068">
        <ele>305.1</ele>
        <time>2017-03-28T16:13:33Z</time>
      </trkpt>
      <trkpt lat="47.41543" lon="4.98074">
        <ele>305.3</ele>
        <time>2017-03-28T16:13:45Z</time>
      </trkpt>
      <trkpt lat="47.41535" lon="4.98081">
        <ele>305</ele>
        <time>2017-03-28T16:13:55Z</time>
      </trkpt>
      <trkpt lat="47.41528" lon="4.98088">
        <ele>305.1</ele>
        <time>2017-03-28T16:14:03Z</time>
      </trkpt>
      <trkpt lat="47.41519" lon="4.98094">
        <ele>304.9</ele>
        <time>2017-03-28T16:14:11Z</time>
      </trkpt>
      <trkpt lat="47.4151" lon="4.98102">
        <ele>304.8</ele>
        <time>2017-03-28T16:14:18Z</time>
      </trkpt>
      <trkpt lat="47.41503" lon="4.9811">
        <ele>304.7</ele>
        <time>2017-03-28T16:14:25Z</time>
      </trkpt>
      <trkpt lat="47.41494" lon="4.98116">
        <ele>304.6</ele>
        <time>2017-03-28T16:14:34Z</time>
      </trkpt>
      <trkpt lat="47.41485" lon="4.98121">
        <ele>304.6</ele>
        <time>2017-03-28T16:14:43Z</time>
      </trkpt>
      <trkpt lat="47.41478" lon="4.98128">
        <ele>306.2</ele>
        <time>2017-03-28T16:14:56Z</time>
      </trkpt>
      <trkpt lat="47.41475" lon="4.98141">
        <ele>306.1</ele>
        <time>2017-03-28T16:15:07Z</time>
      </trkpt>
      <trkpt lat="47.41471" lon="4.98154">
        <ele>306.4</ele>
        <time>2017-03-28T16:15:15Z</time>
      </trkpt>
      <trkpt lat="47.41469" lon="4.98166">
        <ele>305.8</ele>
        <time>2017-03-28T16:15:25Z</time>
      </trkpt>
      <trkpt lat="47.41472" lon="4.9818">
        <ele>305.7</ele>
        <time>2017-03-28T16:15:33Z</time>
      </trkpt>
      <trkpt lat="47.41477" lon="4.98193">
        <ele>306.5</ele>
        <time>2017-03-28T16:15:41Z</time>
      </trkpt>
      <trkpt lat="47.41482" lon="4.98205">
        <ele>306.8</ele>
        <time>2017-03-28T16:15:50Z</time>
      </trkpt>
      <trkpt lat="47.41489" lon="4.98213">
        <ele>307.3</ele>
        <time>2017-03-28T16:15:59Z</time>
      </trkpt>
      <trkpt lat="47.41494" lon="4.98226">
        <ele>307.4</ele>
        <time>2017-03-28T16:16:08Z</time>
      </trkpt>
      <trkpt lat="47.41499" lon="4.98237">
        <ele>308</ele>
        <time>2017-03-28T16:16:17Z</time>
      </trkpt>
      <trkpt lat="47.41499" lon="4.98244">
        <ele>309.7</ele>
        <time>2017-03-28T16:16:57Z</time>
      </trkpt>
    </trkseg>
  </trk>
</gpx>